Wetterdaten: Donnerstag, 09.06.2022
Datum Zeit Temp. Aussen Temp. o. S. Temp +5cm Feuchte Auss Luftdruck Regen Sonnenschein Regendauer Solar Windben Empfang
09.06.2022 00:00 14,3 C 13,9 C 11,1 C 98 % 1008,5 hPa 0,0 l/m 0 min 0 min 0 W/m 3,2 km/h (1 Bft) 97,87 %
09.06.2022 00:02 14,3 C 13,9 C 11,1 C 98 % 1008,5 hPa 0,0 l/m 0 min 0 min 0 W/m 6,4 km/h (2 Bft) 93,18 %
09.06.2022 00:04 14,3 C 13,9 C 11,1 C 98 % 1008,4 hPa 0,0 l/m 0 min 0 min 0 W/m 3,2 km/h (1 Bft) 97,30 %
09.06.2022 00:07 14,3 C 13,3 C 11,1 C 98 % 1008,5 hPa 0,0 l/m 0 min 0 min 0 W/m 6,4 km/h (2 Bft) 97,40 %
09.06.2022 00:08 14,3 C 13,3 C 11,1 C 98 % 1008,5 hPa 0,0 l/m 0 min 0 min 0 W/m 3,2 km/h (1 Bft) 95,65 %
09.06.2022 00:10 14,3 C 13,3 C 10,6 C 98 % 1008,5 hPa 0,0 l/m 0 min 0 min 0 W/m 3,2 km/h (1 Bft) 98,00 %
09.06.2022 00:12 14,3 C 13,3 C 10,6 C 98 % 1008,5 hPa 0,0 l/m 0 min 0 min 0 W/m 3,2 km/h (1 Bft) 97,87 %
09.06.2022 00:14 14,3 C 13,3 C 10,6 C 98 % 1008,5 hPa 0,0 l/m 0 min 0 min 0 W/m 3,2 km/h (1 Bft) 97,87 %
09.06.2022 00:16 14,3 C 13,3 C 10,6 C 98 % 1008,5 hPa 0,0 l/m 0 min 0 min 0 W/m 3,2 km/h (1 Bft) 97,87 %
09.06.2022 00:18 14,3 C 13,3 C 10,6 C 98 % 1008,5 hPa 0,0 l/m 0 min 0 min 0 W/m 3,2 km/h (1 Bft) 97,83 %
09.06.2022 00:20 14,3 C 13,3 C 10,6 C 98 % 1008,5 hPa 0,0 l/m 0 min 0 min 0 W/m 3,2 km/h (1 Bft) 95,74 %
09.06.2022 00:22 14,3 C 13,3 C 10,6 C 98 % 1008,5 hPa 0,0 l/m 0 min 0 min 0 W/m 6,4 km/h (2 Bft) 93,62 %
09.06.2022 00:24 14,3 C 13,3 C 10,6 C 98 % 1008,4 hPa 0,0 l/m 0 min 0 min 0 W/m 3,2 km/h (1 Bft) 97,87 %
09.06.2022 00:26 14,3 C 13,3 C 10,6 C 98 % 1008,5 hPa 0,0 l/m 0 min 0 min 0 W/m 6,4 km/h (2 Bft) 100,00 %
09.06.2022 00:28 14,3 C 13,3 C 10,6 C 98 % 1008,5 hPa 0,0 l/m 0 min 0 min 0 W/m 3,2 km/h (1 Bft) 97,87 %
09.06.2022 00:30 14,3 C 13,3 C 10,6 C 98 % 1008,5 hPa 0,0 l/m 0 min 0 min 0 W/m 3,2 km/h (1 Bft) 97,83 %
09.06.2022 00:32 14,3 C 13,3 C 10,6 C 98 % 1008,5 hPa 0,0 l/m 0 min 0 min 0 W/m 6,4 km/h (2 Bft) 95,74 %
09.06.2022 00:34 14,3 C 13,3 C 10,6 C 98 % 1008,5 hPa 0,0 l/m 0 min 0 min 0 W/m 3,2 km/h (1 Bft) 95,74 %
09.06.2022 00:36 14,3 C 13,3 C 10,6 C 98 % 1008,6 hPa 0,0 l/m 0 min 0 min 0 W/m 3,2 km/h (1 Bft) 97,87 %
09.06.2022 00:38 14,3 C 13,3 C 10,6 C 98 % 1008,5 hPa 0,0 l/m 0 min 0 min 0 W/m 3,2 km/h (1 Bft) 95,74 %
09.06.2022 00:40 14,3 C 13,3 C 10,6 C 98 % 1008,5 hPa 0,0 l/m 0 min 0 min 0 W/m 6,4 km/h (2 Bft) 97,87 %
09.06.2022 00:42 14,2 C 13,3 C 10,6 C 98 % 1008,6 hPa 0,0 l/m 0 min 0 min 0 W/m 9,7 km/h (2 Bft) 95,65 %
09.06.2022 00:44 14,2 C 13,3 C 10,6 C 98 % 1008,5 hPa 0,0 l/m 0 min 0 min 0 W/m 3,2 km/h (1 Bft) 95,74 %
09.06.2022 00:46 14,2 C 13,3 C 10,6 C 98 % 1008,5 hPa 0,0 l/m 0 min 0 min 0 W/m 3,2 km/h (1 Bft) 97,87 %
09.06.2022 00:48 14,2 C 13,3 C 10,6 C 98 % 1008,5 hPa 0,0 l/m 0 min 0 min 0 W/m 3,2 km/h (1 Bft) 97,87 %
09.06.2022 00:50 14,1 C 13,3 C 10,6 C 98 % 1008,5 hPa 0,0 l/m 0 min 0 min 0 W/m 6,4 km/h (2 Bft) 100,00 %
09.06.2022 00:52 14,1 C 13,3 C 10,6 C 98 % 1008,5 hPa 0,0 l/m 0 min 0 min 0 W/m 3,2 km/h (1 Bft) 97,87 %
09.06.2022 00:54 14,1 C 13,3 C 10,6 C 98 % 1008,5 hPa 0,0 l/m 0 min 0 min 0 W/m 6,4 km/h (2 Bft) 95,65 %
09.06.2022 00:56 14,1 C 13,3 C 10,6 C 98 % 1008,6 hPa 0,0 l/m 0 min 0 min 0 W/m 9,7 km/h (2 Bft) 97,87 %
09.06.2022 00:58 14,0 C 13,3 C 10,6 C 98 % 1008,6 hPa 0,0 l/m 0 min 0 min 0 W/m 6,4 km/h (2 Bft) 97,87 %
09.06.2022 01:00 14,0 C 13,3 C 10,6 C 98 % 1008,6 hPa 0,0 l/m 0 min 0 min 0 W/m 3,2 km/h (1 Bft) 97,87 %
09.06.2022 01:02 13,9 C 13,3 C 10,6 C 98 % 1008,6 hPa 0,0 l/m 0 min 0 min 0 W/m 6,4 km/h (2 Bft) 95,74 %
09.06.2022 01:04 13,9 C 13,3 C 10,6 C 98 % 1008,5 hPa 0,0 l/m 0 min 0 min 0 W/m 3,2 km/h (1 Bft) 97,87 %
09.06.2022 01:06 13,9 C 13,3 C 10,6 C 98 % 1008,6 hPa 0,0 l/m 0 min 0 min 0 W/m 6,4 km/h (2 Bft) 95,65 %
09.06.2022 01:08 13,9 C 12,8 C 10,6 C 98 % 1008,6 hPa 0,0 l/m 0 min 0 min 0 W/m 3,2 km/h (1 Bft) 97,87 %
09.06.2022 01:10 13,9 C 12,8 C 10,6 C 98 % 1008,5 hPa 0,0 l/m 0 min 0 min 0 W/m 6,4 km/h (2 Bft) 95,74 %
09.06.2022 01:12 13,8 C 12,8 C 10,6 C 98 % 1008,6 hPa 0,0 l/m 0 min 0 min 0 W/m 6,4 km/h (2 Bft) 97,87 %
09.06.2022 01:14 13,8 C 12,8 C 10,6 C 98 % 1008,7 hPa 0,0 l/m 0 min 0 min 0 W/m 3,2 km/h (1 Bft) 97,87 %
09.06.2022 01:16 13,8 C 12,8 C 10,6 C 98 % 1008,6 hPa 0,0 l/m 0 min 0 min 0 W/m 6,4 km/h (2 Bft) 95,74 %
09.06.2022 01:18 13,8 C 12,8 C 10,6 C 98 % 1008,6 hPa 0,0 l/m 0 min 0 min 0 W/m 6,4 km/h (2 Bft) 95,65 %
09.06.2022 01:20 13,8 C 12,8 C 10,6 C 98 % 1008,7 hPa 0,0 l/m 0 min 0 min 0 W/m 3,2 km/h (1 Bft) 100,00 %
09.06.2022 01:22 13,8 C 12,8 C 10,0 C 98 % 1008,6 hPa 0,0 l/m 0 min 0 min 0 W/m 3,2 km/h (1 Bft) 100,00 %
09.06.2022 01:24 13,8 C 12,8 C 10,0 C 98 % 1008,6 hPa 0,0 l/m 0 min 0 min 0 W/m 3,2 km/h (1 Bft) 100,00 %
09.06.2022 01:26 13,7 C 12,8 C 10,0 C 98 % 1008,6 hPa 0,0 l/m 0 min 0 min 0 W/m 9,7 km/h (2 Bft) 95,74 %
09.06.2022 01:28 13,7 C 12,8 C 10,0 C 98 % 1008,7 hPa 0,0 l/m 0 min 0 min 0 W/m 9,7 km/h (2 Bft) 97,87 %
09.06.2022 01:30 13,7 C 12,8 C 10,0 C 97 % 1008,7 hPa 0,0 l/m 0 min 0 min 0 W/m 3,2 km/h (1 Bft) 97,83 %
09.06.2022 01:32 13,7 C 12,8 C 10,0 C 97 % 1008,7 hPa 0,0 l/m 0 min 0 min 0 W/m 3,2 km/h (1 Bft) 97,87 %
09.06.2022 01:34 13,7 C 12,8 C 10,0 C 97 % 1008,8 hPa 0,0 l/m 0 min 0 min 0 W/m 3,2 km/h (1 Bft) 97,87 %
09.06.2022 01:36 13,6 C 12,8 C 10,0 C 98 % 1008,7 hPa 0,0 l/m 0 min 0 min 0 W/m 6,4 km/h (2 Bft) 97,87 %
09.06.2022 01:38 13,6 C 12,8 C 10,0 C 98 % 1008,7 hPa 0,0 l/m 0 min 0 min 0 W/m 3,2 km/h (1 Bft) 97,87 %
09.06.2022 01:40 13,6 C 12,8 C 10,0 C 98 % 1008,7 hPa 0,0 l/m 0 min 0 min 0 W/m 9,7 km/h (2 Bft) 97,87 %
09.06.2022 01:42 13,6 C 12,8 C 10,0 C 98 % 1008,8 hPa 0,0 l/m 0 min 0 min 0 W/m 3,2 km/h (1 Bft) 97,83 %
09.06.2022 01:44 13,6 C 12,8 C 10,0 C 98 % 1008,7 hPa 0,0 l/m 0 min 0 min 0 W/m 6,4 km/h (2 Bft) 97,87 %
09.06.2022 01:46 13,6 C 12,8 C 10,0 C 97 % 1008,7 hPa 0,0 l/m 0 min 0 min 0 W/m 6,4 km/h (2 Bft) 97,87 %
09.06.2022 01:48 13,6 C 12,8 C 10,0 C 97 % 1008,7 hPa 0,0 l/m 0 min 0 min 0 W/m 9,7 km/h (2 Bft) 97,87 %
09.06.2022 01:50 13,5 C 12,8 C 10,0 C 97 % 1008,8 hPa 0,0 l/m 0 min 0 min 0 W/m 12,9 km/h (3 Bft) 97,87 %
09.06.2022 01:52 13,5 C 12,8 C 10,0 C 97 % 1008,9 hPa 0,0 l/m 0 min 0 min 0 W/m 3,2 km/h (1 Bft) 95,74 %
09.06.2022 01:54 13,4 C 12,8 C 10,0 C 97 % 1008,8 hPa 0,0 l/m 0 min 0 min 0 W/m 9,7 km/h (2 Bft) 97,83 %
09.06.2022 01:56 13,4 C 12,8 C 10,0 C 97 % 1008,8 hPa 0,0 l/m 0 min 0 min 0 W/m 6,4 km/h (2 Bft) 97,87 %
09.06.2022 01:58 13,4 C 12,8 C 10,0 C 97 % 1008,8 hPa 0,0 l/m 0 min 0 min 0 W/m 6,4 km/h (2 Bft) 95,74 %
09.06.2022 02:00 13,4 C 12,8 C 10,0 C 97 % 1008,9 hPa 0,0 l/m 0 min 0 min 0 W/m 6,4 km/h (2 Bft) 97,87 %
09.06.2022 02:02 13,4 C 12,8 C 10,0 C 97 % 1008,9 hPa 0,0 l/m 0 min 0 min 0 W/m 6,4 km/h (2 Bft) 95,74 %
09.06.2022 02:04 13,4 C 12,8 C 10,0 C 97 % 1008,9 hPa 0,0 l/m 0 min 0 min 0 W/m 3,2 km/h (1 Bft) 97,87 %
09.06.2022 02:06 13,4 C 12,2 C 10,0 C 97 % 1008,9 hPa 0,0 l/m 0 min 0 min 0 W/m 12,9 km/h (3 Bft) 97,83 %
09.06.2022 02:08 13,4 C 12,8 C 9,4 C 97 % 1009,0 hPa 0,0 l/m 0 min 0 min 0 W/m 3,2 km/h (1 Bft) 97,87 %
09.06.2022 02:10 13,3 C 12,2 C 10,0 C 97 % 1008,9 hPa 0,0 l/m 0 min 0 min 0 W/m 9,7 km/h (2 Bft) 100,00 %
09.06.2022 02:12 13,3 C 12,2 C 9,4 C 97 % 1009,0 hPa 0,0 l/m 0 min 0 min 0 W/m 12,9 km/h (3 Bft) 100,00 %
09.06.2022 02:14 13,3 C 12,8 C 10,0 C 97 % 1009,0 hPa 0,0 l/m 0 min 0 min 0 W/m 6,4 km/h (2 Bft) 100,00 %
09.06.2022 02:16 13,3 C 12,2 C 9,4 C 97 % 1009,0 hPa 0,0 l/m 0 min 0 min 0 W/m 3,2 km/h (1 Bft) 100,00 %
09.06.2022 02:18 13,3 C 12,2 C 9,4 C 97 % 1009,0 hPa 0,0 l/m 0 min 0 min 0 W/m 3,2 km/h (1 Bft) 100,00 %
09.06.2022 02:20 13,3 C 12,2 C 10,0 C 97 % 1009,0 hPa 0,0 l/m 0 min 0 min 0 W/m 3,2 km/h (1 Bft) 100,00 %
09.06.2022 02:22 13,3 C 12,2 C 9,4 C 97 % 1009,0 hPa 0,0 l/m 0 min 0 min 0 W/m 3,2 km/h (1 Bft) 100,00 %
09.06.2022 02:24 13,2 C 12,2 C 9,4 C 97 % 1009,1 hPa 0,0 l/m 0 min 0 min 0 W/m 3,2 km/h (1 Bft) 100,00 %
09.06.2022 02:26 13,2 C 12,2 C 9,4 C 97 % 1009,1 hPa 0,0 l/m 0 min 0 min 0 W/m 6,4 km/h (2 Bft) 100,00 %
09.06.2022 02:28 13,2 C 12,2 C 9,4 C 97 % 1009,0 hPa 0,0 l/m 0 min 0 min 0 W/m 3,2 km/h (1 Bft) 100,00 %
09.06.2022 02:30 13,2 C 12,2 C 9,4 C 97 % 1009,1 hPa 0,0 l/m 0 min 0 min 0 W/m 3,2 km/h (1 Bft) 97,83 %
09.06.2022 02:32 13,1 C 12,2 C 9,4 C 97 % 1009,1 hPa 0,0 l/m 0 min 0 min 0 W/m 6,4 km/h (2 Bft) 100,00 %
09.06.2022 02:34 13,1 C 12,2 C 9,4 C 97 % 1009,0 hPa 0,0 l/m 0 min 0 min 0 W/m 3,2 km/h (1 Bft) 100,00 %
09.06.2022 02:36 13,1 C 12,2 C 9,4 C 97 % 1009,1 hPa 0,0 l/m 0 min 0 min 0 W/m 6,4 km/h (2 Bft) 97,87 %
09.06.2022 02:38 13,1 C 12,2 C 9,4 C 97 % 1009,1 hPa 0,0 l/m 0 min 0 min 0 W/m 6,4 km/h (2 Bft) 100,00 %
09.06.2022 02:40 13,1 C 12,2 C 9,4 C 97 % 1009,1 hPa 0,0 l/m 0 min 0 min 0 W/m 3,2 km/h (1 Bft) 97,87 %
09.06.2022 02:42 13,1 C 12,2 C 9,4 C 97 % 1009,1 hPa 0,0 l/m 0 min 0 min 0 W/m 6,4 km/h (2 Bft) 97,83 %
09.06.2022 02:44 13,1 C 12,2 C 9,4 C 97 % 1009,1 hPa 0,0 l/m 0 min 0 min 0 W/m 6,4 km/h (2 Bft) 97,87 %
09.06.2022 02:46 13,1 C 12,2 C 9,4 C 97 % 1009,1 hPa 0,0 l/m 0 min 0 min 0 W/m 6,4 km/h (2 Bft) 97,87 %
09.06.2022 02:48 13,1 C 12,2 C 9,4 C 97 % 1009,1 hPa 0,0 l/m 0 min 0 min 0 W/m 6,4 km/h (2 Bft) 97,87 %
09.06.2022 02:50 13,1 C 12,2 C 9,4 C 97 % 1009,1 hPa 0,0 l/m 0 min 0 min 0 W/m 6,4 km/h (2 Bft) 95,74 %
09.06.2022 02:52 13,0 C 12,2 C 9,4 C 97 % 1009,1 hPa 0,0 l/m 0 min 0 min 0 W/m 3,2 km/h (1 Bft) 91,49 %
09.06.2022 02:54 13,0 C 12,2 C 9,4 C 97 % 1009,1 hPa 0,0 l/m 0 min 0 min 0 W/m 3,2 km/h (1 Bft) 97,83 %
09.06.2022 02:56 12,9 C 12,2 C 9,4 C 97 % 1009,2 hPa 0,0 l/m 0 min 0 min 0 W/m 3,2 km/h (1 Bft) 97,87 %
09.06.2022 02:58 12,9 C 12,2 C 9,4 C 97 % 1009,2 hPa 0,0 l/m 0 min 0 min 0 W/m 3,2 km/h (1 Bft) 97,87 %
09.06.2022 03:00 12,9 C 12,2 C 9,4 C 97 % 1009,2 hPa 0,0 l/m 0 min 0 min 0 W/m 12,9 km/h (3 Bft) 95,74 %
09.06.2022 03:02 12,9 C 12,2 C 9,4 C 97 % 1009,2 hPa 0,0 l/m 0 min 0 min 0 W/m 6,4 km/h (2 Bft) 97,87 %
09.06.2022 03:04 12,9 C 12,2 C 9,4 C 97 % 1009,2 hPa 0,0 l/m 0 min 0 min 0 W/m 6,4 km/h (2 Bft) 93,48 %
09.06.2022 03:06 12,9 C 12,2 C 9,4 C 97 % 1009,2 hPa 0,0 l/m 0 min 0 min 0 W/m 6,4 km/h (2 Bft) 95,74 %
09.06.2022 03:08 12,9 C 12,2 C 9,4 C 97 % 1009,2 hPa 0,0 l/m 0 min 0 min 0 W/m 9,7 km/h (2 Bft) 97,87 %
09.06.2022 03:10 12,9 C 12,2 C 9,4 C 97 % 1009,2 hPa 0,0 l/m 0 min 0 min 0 W/m 3,2 km/h (1 Bft) 95,74 %
09.06.2022 03:12 12,9 C 12,2 C 9,4 C 97 % 1009,2 hPa 0,0 l/m 0 min 0 min 0 W/m 6,4 km/h (2 Bft) 97,87 %
09.06.2022 03:14 12,9 C 12,2 C 9,4 C 97 % 1009,2 hPa 0,0 l/m 0 min 0 min 0 W/m 12,9 km/h (3 Bft) 95,74 %
09.06.2022 03:16 12,9 C 12,2 C 9,4 C 97 % 1009,2 hPa 0,0 l/m 0 min 0 min 0 W/m 3,2 km/h (1 Bft) 97,87 %
09.06.2022 03:18 12,9 C 12,2 C 9,4 C 97 % 1009,2 hPa 0,0 l/m 0 min 0 min 0 W/m 9,7 km/h (2 Bft) 97,83 %
09.06.2022 03:20 12,8 C 12,2 C 9,4 C 97 % 1009,2 hPa 0,0 l/m 0 min 0 min 0 W/m 6,4 km/h (2 Bft) 97,87 %
09.06.2022 03:22 12,8 C 12,2 C 9,4 C 97 % 1009,2 hPa 0,0 l/m 0 min 0 min 0 W/m 6,4 km/h (2 Bft) 97,87 %
09.06.2022 03:24 12,8 C 12,2 C 9,4 C 97 % 1009,3 hPa 0,0 l/m 0 min 0 min 0 W/m 6,4 km/h (2 Bft) 95,74 %
09.06.2022 03:26 12,8 C 12,2 C 9,4 C 97 % 1009,3 hPa 0,0 l/m 0 min 0 min 0 W/m 6,4 km/h (2 Bft) 97,87 %
09.06.2022 03:28 12,8 C 12,2 C 9,4 C 97 % 1009,3 hPa 0,0 l/m 0 min 0 min 0 W/m 6,4 km/h (2 Bft) 95,65 %
09.06.2022 03:30 12,8 C 12,2 C 9,4 C 97 % 1009,3 hPa 0,0 l/m 0 min 0 min 0 W/m 6,4 km/h (2 Bft) 97,87 %
09.06.2022 03:32 12,8 C 12,2 C 9,4 C 97 % 1009,4 hPa 0,0 l/m 0 min 0 min 0 W/m 19,3 km/h (3 Bft) 95,74 %
09.06.2022 03:34 12,8 C 12,2 C 9,4 C 97 % 1009,4 hPa 0,0 l/m 0 min 0 min 0 W/m 3,2 km/h (1 Bft) 97,87 %
09.06.2022 03:36 12,8 C 12,2 C 9,4 C 97 % 1009,4 hPa 0,0 l/m 0 min 0 min 0 W/m 9,7 km/h (2 Bft) 97,87 %
09.06.2022 03:38 12,8 C 12,2 C 9,4 C 97 % 1009,4 hPa 0,0 l/m 0 min 0 min 0 W/m 9,7 km/h (2 Bft) 97,87 %
09.06.2022 03:40 12,8 C 12,2 C 9,4 C 97 % 1009,4 hPa 0,0 l/m 0 min 0 min 0 W/m 6,4 km/h (2 Bft) 97,83 %
09.06.2022 03:42 12,8 C 12,2 C 9,4 C 97 % 1009,4 hPa 0,0 l/m 0 min 0 min 0 W/m 6,4 km/h (2 Bft) 95,74 %
09.06.2022 03:44 12,8 C 12,2 C 9,4 C 97 % 1009,5 hPa 0,0 l/m 0 min 0 min 0 W/m 9,7 km/h (2 Bft) 95,74 %
09.06.2022 03:46 12,8 C 12,2 C 9,4 C 97 % 1009,4 hPa 0,0 l/m 0 min 0 min 0 W/m 9,7 km/h (2 Bft) 97,87 %
09.06.2022 03:48 12,8 C 12,2 C 9,4 C 97 % 1009,5 hPa 0,0 l/m 0 min 0 min 0 W/m 6,4 km/h (2 Bft) 95,74 %
09.06.2022 03:50 12,8 C 12,2 C 9,4 C 97 % 1009,5 hPa 0,0 l/m 0 min 0 min 0 W/m 12,9 km/h (3 Bft) 97,87 %
09.06.2022 03:52 12,8 C 12,2 C 9,4 C 97 % 1009,5 hPa 0,0 l/m 0 min 0 min 0 W/m 6,4 km/h (2 Bft) 95,74 %
09.06.2022 03:54 12,8 C 12,2 C 9,4 C 97 % 1009,5 hPa 0,0 l/m 0 min 0 min 0 W/m 6,4 km/h (2 Bft) 97,83 %
09.06.2022 03:56 12,8 C 12,2 C 9,4 C 97 % 1009,5 hPa 0,0 l/m 0 min 0 min 0 W/m 16,1 km/h (3 Bft) 100,00 %
09.06.2022 03:58 12,8 C 12,2 C 9,4 C 97 % 1009,5 hPa 0,0 l/m 0 min 0 min 0 W/m 6,4 km/h (2 Bft) 100,00 %
09.06.2022 04:00 12,8 C 12,2 C 9,4 C 97 % 1009,5 hPa 0,0 l/m 0 min 0 min 0 W/m 12,9 km/h (3 Bft) 95,74 %
09.06.2022 04:02 12,8 C 12,2 C 9,4 C 97 % 1009,7 hPa 0,0 l/m 0 min 0 min 0 W/m 12,9 km/h (3 Bft) 100,00 %
09.06.2022 04:04 12,8 C 12,2 C 9,4 C 97 % 1009,6 hPa 0,0 l/m 0 min 0 min 0 W/m 12,9 km/h (3 Bft) 100,00 %
09.06.2022 04:06 12,8 C 12,2 C 9,4 C 97 % 1009,7 hPa 0,0 l/m 0 min 0 min 0 W/m 16,1 km/h (3 Bft) 97,87 %
09.06.2022 04:08 12,8 C 12,2 C 9,4 C 97 % 1009,6 hPa 0,0 l/m 0 min 0 min 0 W/m 12,9 km/h (3 Bft) 97,87 %
09.06.2022 04:10 12,8 C 12,2 C 10,0 C 97 % 1009,6 hPa 0,0 l/m 0 min 0 min 0 W/m 9,7 km/h (2 Bft) 95,74 %
09.06.2022 04:12 12,9 C 12,2 C 10,0 C 97 % 1009,7 hPa 0,0 l/m 0 min 0 min 0 W/m 6,4 km/h (2 Bft) 95,74 %
09.06.2022 04:14 12,9 C 12,2 C 10,0 C 97 % 1009,7 hPa 0,0 l/m 0 min 0 min 0 W/m 6,4 km/h (2 Bft) 97,87 %
09.06.2022 04:16 12,9 C 12,2 C 10,0 C 97 % 1009,7 hPa 0,0 l/m 0 min 0 min 0 W/m 6,4 km/h (2 Bft) 97,83 %
09.06.2022 04:18 12,9 C 12,2 C 10,0 C 97 % 1009,7 hPa 0,0 l/m 0 min 0 min 0 W/m 6,4 km/h (2 Bft) 97,87 %
09.06.2022 04:20 12,9 C 12,2 C 10,0 C 97 % 1009,7 hPa 0,0 l/m 0 min 0 min 0 W/m 6,4 km/h (2 Bft) 97,87 %
09.06.2022 04:22 12,9 C 12,2 C 10,0 C 97 % 1009,8 hPa 0,0 l/m 0 min 0 min 0 W/m 6,4 km/h (2 Bft) 97,87 %
09.06.2022 04:24 12,9 C 12,2 C 10,0 C 97 % 1009,8 hPa 0,0 l/m 0 min 0 min 0 W/m 6,4 km/h (2 Bft) 95,74 %
09.06.2022 04:26 12,9 C 12,2 C 10,0 C 97 % 1009,8 hPa 0,0 l/m 0 min 0 min 0 W/m 6,4 km/h (2 Bft) 97,87 %
09.06.2022 04:28 13,0 C 12,2 C 10,0 C 97 % 1009,8 hPa 0,0 l/m 0 min 0 min 0 W/m 12,9 km/h (3 Bft) 97,83 %
09.06.2022 04:30 13,0 C 12,2 C 10,0 C 97 % 1009,9 hPa 0,0 l/m 0 min 0 min 0 W/m 6,4 km/h (2 Bft) 97,87 %
09.06.2022 04:32 13,0 C 12,2 C 10,0 C 97 % 1009,9 hPa 0,0 l/m 0 min 0 min 0 W/m 12,9 km/h (3 Bft) 95,74 %
09.06.2022 04:34 13,0 C 12,2 C 10,0 C 97 % 1009,8 hPa 0,0 l/m 0 min 0 min 0 W/m 3,2 km/h (1 Bft) 95,74 %
09.06.2022 04:36 13,0 C 12,2 C 10,0 C 97 % 1009,9 hPa 0,0 l/m 0 min 0 min 0 W/m 9,7 km/h (2 Bft) 95,74 %
09.06.2022 04:38 13,0 C 12,2 C 10,0 C 97 % 1009,9 hPa 0,0 l/m 0 min 0 min 0 W/m 6,4 km/h (2 Bft) 95,74 %
09.06.2022 04:40 13,0 C 12,2 C 10,0 C 97 % 1009,9 hPa 0,0 l/m 0 min 0 min 0 W/m 6,4 km/h (2 Bft) 93,48 %
09.06.2022 04:42 13,0 C 12,2 C 10,0 C 97 % 1009,9 hPa 0,0 l/m 0 min 0 min 0 W/m 12,9 km/h (3 Bft) 95,74 %
09.06.2022 04:44 13,1 C 12,2 C 10,0 C 97 % 1009,9 hPa 0,0 l/m 0 min 0 min 0 W/m 6,4 km/h (2 Bft) 97,87 %
09.06.2022 04:46 13,1 C 12,2 C 10,0 C 97 % 1009,9 hPa 0,0 l/m 0 min 0 min 0 W/m 9,7 km/h (2 Bft) 95,74 %
09.06.2022 04:48 13,1 C 12,2 C 10,0 C 97 % 1009,9 hPa 0,0 l/m 0 min 0 min 0 W/m 12,9 km/h (3 Bft) 97,87 %
09.06.2022 04:50 13,1 C 12,2 C 10,0 C 97 % 1009,9 hPa 0,0 l/m 0 min 0 min 0 W/m 6,4 km/h (2 Bft) 97,87 %
09.06.2022 04:52 13,1 C 12,2 C 10,0 C 97 % 1009,9 hPa 0,0 l/m 0 min 0 min 0 W/m 12,9 km/h (3 Bft) 95,65 %
09.06.2022 04:54 13,1 C 12,2 C 10,0 C 97 % 1009,9 hPa 0,0 l/m 0 min 0 min 0 W/m 12,9 km/h (3 Bft) 97,87 %
09.06.2022 04:56 13,1 C 12,2 C 10,0 C 97 % 1010,0 hPa 0,0 l/m 0 min 0 min 0 W/m 6,4 km/h (2 Bft) 97,87 %
09.06.2022 04:58 13,1 C 12,2 C 10,0 C 97 % 1010,0 hPa 0,0 l/m 0 min 0 min 0 W/m 6,4 km/h (2 Bft) 95,74 %
09.06.2022 05:00 13,0 C 12,2 C 10,0 C 97 % 1010,0 hPa 0,0 l/m 0 min 0 min 0 W/m 6,4 km/h (2 Bft) 100,00 %
09.06.2022 05:02 13,1 C 12,2 C 10,0 C 97 % 1010,0 hPa 0,0 l/m 0 min 0 min 0 W/m 6,4 km/h (2 Bft) 100,00 %
09.06.2022 05:04 13,1 C 12,2 C 10,0 C 97 % 1010,0 hPa 0,0 l/m 0 min 0 min 0 W/m 6,4 km/h (2 Bft) 100,00 %
09.06.2022 05:06 13,1 C 12,2 C 10,0 C 97 % 1010,1 hPa 0,0 l/m 0 min 0 min 0 W/m 9,7 km/h (2 Bft) 100,00 %
09.06.2022 05:08 13,1 C 12,2 C 10,0 C 97 % 1010,1 hPa 0,0 l/m 0 min 0 min 0 W/m 6,4 km/h (2 Bft) 100,00 %
09.06.2022 05:10 13,1 C 12,2 C 10,0 C 97 % 1010,0 hPa 0,0 l/m 0 min 0 min 0 W/m 9,7 km/h (2 Bft) 100,00 %
09.06.2022 05:12 13,1 C 12,2 C 10,0 C 97 % 1010,1 hPa 0,0 l/m 0 min 0 min 0 W/m 6,4 km/h (2 Bft) 100,00 %
09.06.2022 05:14 13,1 C 12,2 C 10,0 C 97 % 1010,1 hPa 0,0 l/m 0 min 0 min 0 W/m 6,4 km/h (2 Bft) 100,00 %
09.06.2022 05:16 13,1 C 12,2 C 10,0 C 97 % 1010,1 hPa 0,0 l/m 0 min 0 min 0 W/m 9,7 km/h (2 Bft) 100,00 %
09.06.2022 05:18 13,1 C 12,2 C 10,0 C 97 % 1010,1 hPa 0,0 l/m 0 min 0 min 0 W/m 6,4 km/h (2 Bft) 100,00 %
09.06.2022 05:20 13,1 C 12,2 C 10,0 C 97 % 1010,2 hPa 0,0 l/m 0 min 0 min 0 W/m 6,4 km/h (2 Bft) 100,00 %
09.06.2022 05:22 13,1 C 12,2 C 10,0 C 97 % 1010,2 hPa 0,0 l/m 0 min 0 min 0 W/m 3,2 km/h (1 Bft) 100,00 %
09.06.2022 05:24 13,1 C 12,2 C 10,0 C 97 % 1010,2 hPa 0,0 l/m 0 min 0 min 0 W/m 6,4 km/h (2 Bft) 100,00 %
09.06.2022 05:26 13,1 C 12,2 C 10,0 C 97 % 1010,3 hPa 0,0 l/m 0 min 0 min 0 W/m 6,4 km/h (2 Bft) 100,00 %
09.06.2022 05:28 13,1 C 12,2 C 10,0 C 97 % 1010,3 hPa 0,0 l/m 0 min 0 min 0 W/m 6,4 km/h (2 Bft) 100,00 %
09.06.2022 05:30 13,1 C 12,8 C 10,6 C 97 % 1010,3 hPa 0,0 l/m 0 min 0 min 0 W/m 6,4 km/h (2 Bft) 100,00 %
09.06.2022 05:32 13,2 C 12,8 C 10,6 C 97 % 1010,3 hPa 0,0 l/m 0 min 0 min 0 W/m 12,9 km/h (3 Bft) 100,00 %
09.06.2022 05:34 13,2 C 12,8 C 10,6 C 97 % 1010,3 hPa 0,0 l/m 0 min 0 min 0 W/m 6,4 km/h (2 Bft) 97,87 %
09.06.2022 05:36 13,2 C 12,8 C 10,6 C 97 % 1010,4 hPa 0,0 l/m 0 min 0 min 1 W/m 6,4 km/h (2 Bft) 100,00 %
09.06.2022 05:38 13,2 C 12,8 C 10,6 C 97 % 1010,4 hPa 0,0 l/m 0 min 0 min 5 W/m 9,7 km/h (2 Bft) 100,00 %
09.06.2022 05:40 13,2 C 12,8 C 10,6 C 97 % 1010,4 hPa 0,0 l/m 0 min 0 min 5 W/m 16,1 km/h (3 Bft) 100,00 %
09.06.2022 05:42 13,2 C 12,8 C 10,6 C 97 % 1010,5 hPa 0,0 l/m 0 min 0 min 5 W/m 9,7 km/h (2 Bft) 97,87 %
09.06.2022 05:44 13,2 C 12,8 C 10,6 C 97 % 1010,5 hPa 0,0 l/m 0 min 0 min 5 W/m 9,7 km/h (2 Bft) 100,00 %
09.06.2022 05:46 13,2 C 12,8 C 10,6 C 97 % 1010,5 hPa 0,0 l/m 0 min 0 min 2 W/m 6,4 km/h (2 Bft) 100,00 %
09.06.2022 05:48 13,2 C 12,8 C 10,6 C 97 % 1010,5 hPa 0,0 l/m 0 min 0 min 3 W/m 12,9 km/h (3 Bft) 100,00 %
09.06.2022 05:50 13,2 C 12,8 C 10,6 C 97 % 1010,5 hPa 0,0 l/m 0 min 0 min 5 W/m 3,2 km/h (1 Bft) 100,00 %
09.06.2022 05:52 13,2 C 12,8 C 10,6 C 97 % 1010,6 hPa 0,0 l/m 0 min 0 min 6 W/m 12,9 km/h (3 Bft) 100,00 %
09.06.2022 05:54 13,3 C 12,8 C 10,6 C 97 % 1010,6 hPa 0,0 l/m 0 min 0 min 7 W/m 9,7 km/h (2 Bft) 100,00 %
09.06.2022 05:56 13,3 C 12,8 C 10,6 C 97 % 1010,6 hPa 0,0 l/m 0 min 0 min 7 W/m 12,9 km/h (3 Bft) 100,00 %
09.06.2022 05:58 13,2 C 12,8 C 10,6 C 97 % 1010,6 hPa 0,0 l/m 0 min 0 min 9 W/m 6,4 km/h (2 Bft) 100,00 %
09.06.2022 06:00 13,2 C 12,8 C 10,6 C 97 % 1010,6 hPa 0,0 l/m 0 min 0 min 9 W/m 12,9 km/h (3 Bft) 100,00 %
09.06.2022 06:02 13,2 C 12,8 C 10,6 C 97 % 1010,7 hPa 0,0 l/m 0 min 0 min 9 W/m 9,7 km/h (2 Bft) 95,74 %
09.06.2022 06:04 13,3 C 12,8 C 10,6 C 97 % 1010,7 hPa 0,0 l/m 0 min 0 min 9 W/m 12,9 km/h (3 Bft) 100,00 %
09.06.2022 06:07 13,3 C 12,8 C 10,6 C 97 % 1010,8 hPa 0,0 l/m 0 min 0 min 9 W/m 6,4 km/h (2 Bft) 100,00 %
09.06.2022 06:08 13,3 C 12,8 C 10,6 C 97 % 1010,8 hPa 0,0 l/m 0 min 0 min 9 W/m 6,4 km/h (2 Bft) 100,00 %
09.06.2022 06:10 13,3 C 12,8 C 10,6 C 97 % 1010,9 hPa 0,0 l/m 0 min 0 min 9 W/m 6,4 km/h (2 Bft) 97,87 %
09.06.2022 06:12 13,3 C 12,8 C 10,6 C 97 % 1010,9 hPa 0,0 l/m 0 min 0 min 8 W/m 9,7 km/h (2 Bft) 97,87 %
09.06.2022 06:14 13,3 C 12,8 C 10,6 C 97 % 1011,0 hPa 0,0 l/m 0 min 0 min 9 W/m 6,4 km/h (2 Bft) 97,87 %
09.06.2022 06:16 13,3 C 12,8 C 10,6 C 97 % 1011,0 hPa 0,0 l/m 0 min 0 min 12 W/m 9,7 km/h (2 Bft) 97,83 %
09.06.2022 06:18 13,3 C 12,8 C 10,6 C 97 % 1011,0 hPa 0,0 l/m 0 min 0 min 14 W/m 9,7 km/h (2 Bft) 95,74 %
09.06.2022 06:20 13,3 C 12,8 C 10,6 C 97 % 1011,1 hPa 0,0 l/m 0 min 0 min 18 W/m 12,9 km/h (3 Bft) 93,62 %
09.06.2022 06:22 13,3 C 12,8 C 10,6 C 97 % 1011,1 hPa 0,0 l/m 0 min 0 min 19 W/m 6,4 km/h (2 Bft) 95,74 %
09.06.2022 06:24 13,3 C 12,8 C 10,6 C 97 % 1011,0 hPa 0,0 l/m 0 min 0 min 23 W/m 6,4 km/h (2 Bft) 93,62 %
09.06.2022 06:26 13,3 C 12,8 C 10,6 C 97 % 1011,0 hPa 0,0 l/m 0 min 0 min 28 W/m 9,7 km/h (2 Bft) 95,74 %
09.06.2022 06:28 13,3 C 12,8 C 10,6 C 97 % 1011,0 hPa 0,0 l/m 0 min 0 min 32 W/m 6,4 km/h (2 Bft) 95,65 %
09.06.2022 06:30 13,3 C 12,8 C 10,6 C 97 % 1011,0 hPa 0,0 l/m 0 min 0 min 34 W/m 9,7 km/h (2 Bft) 95,74 %
09.06.2022 06:32 13,3 C 12,8 C 10,6 C 97 % 1011,0 hPa 0,0 l/m 0 min 0 min 38 W/m 3,2 km/h (1 Bft) 95,74 %
09.06.2022 06:34 13,3 C 12,8 C 10,6 C 97 % 1011,0 hPa 0,0 l/m 0 min 0 min 37 W/m 12,9 km/h (3 Bft) 93,62 %
09.06.2022 06:36 13,3 C 12,8 C 10,6 C 97 % 1011,0 hPa 0,0 l/m 0 min 0 min 35 W/m 6,4 km/h (2 Bft) 93,62 %
09.06.2022 06:38 13,4 C 12,8 C 10,6 C 97 % 1011,0 hPa 0,0 l/m 0 min 0 min 38 W/m 6,4 km/h (2 Bft) 93,62 %
09.06.2022 06:40 13,4 C 12,8 C 10,6 C 97 % 1011,0 hPa 0,0 l/m 0 min 0 min 44 W/m 12,9 km/h (3 Bft) 93,48 %
09.06.2022 06:42 13,4 C 12,8 C 10,6 C 97 % 1011,1 hPa 0,0 l/m 0 min 0 min 44 W/m 12,9 km/h (3 Bft) 91,49 %
09.06.2022 06:44 13,4 C 12,8 C 10,6 C 97 % 1011,1 hPa 0,0 l/m 0 min 0 min 46 W/m 6,4 km/h (2 Bft) 93,62 %
09.06.2022 06:46 13,4 C 12,8 C 10,6 C 97 % 1011,1 hPa 0,0 l/m 0 min 0 min 53 W/m 9,7 km/h (2 Bft) 93,62 %
09.06.2022 06:48 13,4 C 12,8 C 10,6 C 97 % 1011,1 hPa 0,0 l/m 0 min 0 min 48 W/m 6,4 km/h (2 Bft) 91,49 %
09.06.2022 06:50 13,5 C 12,8 C 10,6 C 96 % 1011,2 hPa 0,0 l/m 0 min 0 min 46 W/m 12,9 km/h (3 Bft) 93,48 %
09.06.2022 06:52 13,5 C 13,3 C 10,6 C 96 % 1011,2 hPa 0,0 l/m 0 min 0 min 40 W/m 16,1 km/h (3 Bft) 95,74 %
09.06.2022 06:54 13,5 C 13,3 C 10,6 C 96 % 1011,2 hPa 0,0 l/m 0 min 0 min 40 W/m 16,1 km/h (3 Bft) 93,62 %
09.06.2022 06:56 13,5 C 12,8 C 10,6 C 96 % 1011,2 hPa 0,0 l/m 0 min 0 min 40 W/m 12,9 km/h (3 Bft) 95,74 %
09.06.2022 06:58 13,5 C 13,3 C 10,6 C 96 % 1011,3 hPa 0,0 l/m 0 min 0 min 45 W/m 9,7 km/h (2 Bft) 93,62 %
09.06.2022 07:00 13,5 C 13,3 C 10,6 C 96 % 1011,3 hPa 0,0 l/m 0 min 0 min 61 W/m 12,9 km/h (3 Bft) 95,74 %
09.06.2022 07:02 13,5 C 13,3 C 10,6 C 96 % 1011,3 hPa 0,0 l/m 0 min 0 min 61 W/m 16,1 km/h (3 Bft) 95,74 %
09.06.2022 07:04 13,6 C 13,3 C 10,6 C 96 % 1011,3 hPa 0,0 l/m 0 min 0 min 53 W/m 9,7 km/h (2 Bft) 95,65 %
09.06.2022 07:06 13,6 C 13,3 C 10,6 C 96 % 1011,4 hPa 0,0 l/m 0 min 0 min 48 W/m 6,4 km/h (2 Bft) 95,74 %
09.06.2022 07:08 13,6 C 13,3 C 10,6 C 96 % 1011,4 hPa 0,0 l/m 0 min 0 min 40 W/m 6,4 km/h (2 Bft) 97,87 %
09.06.2022 07:10 13,6 C 13,3 C 10,6 C 96 % 1011,4 hPa 0,0 l/m 0 min 0 min 38 W/m 9,7 km/h (2 Bft) 95,74 %
09.06.2022 07:12 13,6 C 13,3 C 10,6 C 96 % 1011,5 hPa 0,0 l/m 0 min 0 min 39 W/m 3,2 km/h (1 Bft) 97,87 %
09.06.2022 07:14 13,6 C 13,3 C 10,6 C 96 % 1011,5 hPa 0,0 l/m 0 min 0 min 35 W/m 9,7 km/h (2 Bft) 97,87 %
09.06.2022 07:16 13,6 C 13,3 C 10,6 C 96 % 1011,5 hPa 0,0 l/m 0 min 0 min 28 W/m 9,7 km/h (2 Bft) 95,65 %
09.06.2022 07:18 13,6 C 13,3 C 10,6 C 96 % 1011,6 hPa 0,0 l/m 0 min 0 min 31 W/m 12,9 km/h (3 Bft) 97,87 %
09.06.2022 07:20 13,6 C 13,3 C 10,6 C 96 % 1011,6 hPa 0,0 l/m 0 min 0 min 38 W/m 9,7 km/h (2 Bft) 100,00 %
09.06.2022 07:22 13,7 C 13,3 C 10,6 C 96 % 1011,6 hPa 0,0 l/m 0 min 0 min 48 W/m 6,4 km/h (2 Bft) 100,00 %
09.06.2022 07:24 13,6 C 13,3 C 10,6 C 96 % 1011,7 hPa 0,0 l/m 0 min 0 min 44 W/m 6,4 km/h (2 Bft) 97,87 %
09.06.2022 07:26 13,7 C 13,3 C 10,6 C 96 % 1011,7 hPa 0,0 l/m 0 min 0 min 40 W/m 12,9 km/h (3 Bft) 97,87 %
09.06.2022 07:28 13,7 C 13,3 C 11,1 C 96 % 1011,8 hPa 0,0 l/m 0 min 0 min 47 W/m 6,4 km/h (2 Bft) 100,00 %
09.06.2022 07:30 13,7 C 13,3 C 11,1 C 96 % 1011,7 hPa 0,0 l/m 0 min 0 min 59 W/m 6,4 km/h (2 Bft) 100,00 %
09.06.2022 07:32 13,7 C 13,3 C 11,1 C 96 % 1011,8 hPa 0,0 l/m 0 min 0 min 74 W/m 9,7 km/h (2 Bft) 97,87 %
09.06.2022 07:34 13,7 C 13,3 C 11,1 C 96 % 1011,8 hPa 0,0 l/m 0 min 0 min 64 W/m 3,2 km/h (1 Bft) 100,00 %
09.06.2022 07:36 13,7 C 13,3 C 11,1 C 96 % 1011,8 hPa 0,0 l/m 0 min 0 min 62 W/m 16,1 km/h (3 Bft) 100,00 %
09.06.2022 07:38 13,8 C 13,3 C 11,1 C 96 % 1011,9 hPa 0,0 l/m 0 min 0 min 62 W/m 6,4 km/h (2 Bft) 100,00 %
09.06.2022 07:40 13,8 C 13,3 C 11,1 C 96 % 1011,9 hPa 0,0 l/m 0 min 0 min 60 W/m 6,4 km/h (2 Bft) 100,00 %
09.06.2022 07:42 13,8 C 13,3 C 11,1 C 96 % 1011,9 hPa 0,0 l/m 0 min 0 min 55 W/m 9,7 km/h (2 Bft) 100,00 %
09.06.2022 07:44 13,8 C 13,3 C 11,1 C 96 % 1011,9 hPa 0,0 l/m 0 min 0 min 57 W/m 9,7 km/h (2 Bft) 100,00 %
09.06.2022 07:46 13,8 C 13,3 C 11,1 C 96 % 1011,9 hPa 0,0 l/m 0 min 0 min 69 W/m 6,4 km/h (2 Bft) 100,00 %
09.06.2022 07:48 13,8 C 13,3 C 11,1 C 96 % 1012,0 hPa 0,0 l/m 0 min 0 min 79 W/m 12,9 km/h (3 Bft) 100,00 %
09.06.2022 07:50 13,9 C 13,9 C 11,1 C 95 % 1012,0 hPa 0,0 l/m 0 min 0 min 93 W/m 9,7 km/h (2 Bft) 100,00 %
09.06.2022 07:52 13,9 C 13,9 C 11,1 C 96 % 1012,1 hPa 0,0 l/m 0 min 0 min 89 W/m 3,2 km/h (1 Bft) 100,00 %
09.06.2022 07:54 13,9 C 13,9 C 11,1 C 96 % 1012,1 hPa 0,0 l/m 0 min 0 min 100 W/m 6,4 km/h (2 Bft) 100,00 %
09.06.2022 07:56 13,9 C 13,9 C 11,1 C 96 % 1012,1 hPa 0,0 l/m 0 min 0 min 89 W/m 12,9 km/h (3 Bft) 97,87 %
09.06.2022 07:58 13,9 C 13,9 C 11,1 C 96 % 1012,1 hPa 0,0 l/m 0 min 0 min 81 W/m 12,9 km/h (3 Bft) 100,00 %
09.06.2022 08:00 14,0 C 13,9 C 11,1 C 96 % 1012,2 hPa 0,0 l/m 0 min 0 min 90 W/m 9,7 km/h (2 Bft) 100,00 %
09.06.2022 08:02 14,0 C 13,9 C 11,1 C 95 % 1012,1 hPa 0,0 l/m 0 min 0 min 104 W/m 16,1 km/h (3 Bft) 97,87 %
09.06.2022 08:04 14,1 C 13,9 C 11,1 C 95 % 1012,2 hPa 0,0 l/m 0 min 0 min 113 W/m 9,7 km/h (2 Bft) 100,00 %
09.06.2022 08:06 14,1 C 13,9 C 11,1 C 95 % 1012,2 hPa 0,0 l/m 0 min 0 min 119 W/m 12,9 km/h (3 Bft) 100,00 %
09.06.2022 08:08 14,1 C 13,9 C 11,1 C 95 % 1012,3 hPa 0,0 l/m 0 min 0 min 142 W/m 12,9 km/h (3 Bft) 100,00 %
09.06.2022 08:10 14,2 C 14,4 C 11,7 C 95 % 1012,3 hPa 0,0 l/m 0 min 0 min 142 W/m 12,9 km/h (3 Bft) 100,00 %
09.06.2022 08:12 14,2 C 14,4 C 11,7 C 95 % 1012,3 hPa 0,0 l/m 0 min 0 min 138 W/m 6,4 km/h (2 Bft) 100,00 %
09.06.2022 08:14 14,3 C 14,4 C 11,7 C 95 % 1012,3 hPa 0,0 l/m 0 min 0 min 132 W/m 12,9 km/h (3 Bft) 45,95 %
09.06.2022 08:16 14,3 C 14,4 C 11,7 C 95 % 1012,3 hPa 0,0 l/m 0 min 0 min 165 W/m 6,4 km/h (2 Bft) 97,87 %
09.06.2022 08:18 14,3 C 14,4 C 11,7 C 95 % 1012,4 hPa 0,0 l/m 2 min 0 min 236 W/m 16,1 km/h (3 Bft) 97,87 %
09.06.2022 08:20 14,3 C 15,0 C 11,7 C 95 % 1012,3 hPa 0,0 l/m 2 min 0 min 264 W/m 16,1 km/h (3 Bft) 97,87 %
09.06.2022 08:22 14,3 C 15,0 C 12,2 C 95 % 1012,4 hPa 0,0 l/m 2 min 0 min 322 W/m 12,9 km/h (3 Bft) 97,87 %
09.06.2022 08:24 14,4 C 15,0 C 12,2 C 95 % 1012,4 hPa 0,0 l/m 0 min 0 min 220 W/m 12,9 km/h (3 Bft) 95,74 %
09.06.2022 08:26 14,4 C 15,0 C 12,2 C 95 % 1012,4 hPa 0,0 l/m 0 min 0 min 168 W/m 12,9 km/h (3 Bft) 97,83 %
09.06.2022 08:28 14,5 C 15,6 C 12,2 C 95 % 1012,4 hPa 0,0 l/m 2 min 0 min 277 W/m 16,1 km/h (3 Bft) 97,87 %
09.06.2022 08:30 14,6 C 15,6 C 12,2 C 95 % 1012,4 hPa 0,0 l/m 2 min 0 min 336 W/m 12,9 km/h (3 Bft) 97,87 %
09.06.2022 08:32 14,7 C 16,1 C 12,8 C 95 % 1012,4 hPa 0,0 l/m 2 min 0 min 344 W/m 6,4 km/h (2 Bft) 95,74 %
09.06.2022 08:34 14,8 C 16,1 C 12,8 C 95 % 1012,5 hPa 0,0 l/m 0 min 0 min 211 W/m 9,7 km/h (2 Bft) 97,87 %
09.06.2022 08:36 14,8 C 15,6 C 12,8 C 94 % 1012,5 hPa 0,0 l/m 0 min 0 min 167 W/m 22,5 km/h (4 Bft) 97,87 %
09.06.2022 08:38 14,8 C 15,6 C 12,8 C 94 % 1012,5 hPa 0,0 l/m 0 min 0 min 234 W/m 16,1 km/h (3 Bft) 97,83 %
09.06.2022 08:40 14,9 C 15,6 C 12,8 C 94 % 1012,6 hPa 0,0 l/m 2 min 0 min 251 W/m 16,1 km/h (3 Bft) 97,87 %
09.06.2022 08:42 14,9 C 15,6 C 12,8 C 94 % 1012,7 hPa 0,0 l/m 0 min 0 min 198 W/m 12,9 km/h (3 Bft) 97,87 %
09.06.2022 08:44 15,0 C 15,6 C 12,8 C 94 % 1012,7 hPa 0,0 l/m 0 min 0 min 192 W/m 12,9 km/h (3 Bft) 97,87 %
09.06.2022 08:46 15,0 C 15,0 C 12,8 C 93 % 1012,7 hPa 0,0 l/m 0 min 0 min 164 W/m 12,9 km/h (3 Bft) 97,87 %
09.06.2022 08:48 15,0 C 15,0 C 12,2 C 93 % 1012,7 hPa 0,0 l/m 0 min 0 min 180 W/m 9,7 km/h (2 Bft) 100,00 %
09.06.2022 08:50 15,1 C 15,0 C 12,2 C 93 % 1012,7 hPa 0,0 l/m 0 min 0 min 170 W/m 6,4 km/h (2 Bft) 100,00 %
09.06.2022 08:52 15,1 C 15,0 C 12,2 C 93 % 1012,8 hPa 0,0 l/m 0 min 0 min 144 W/m 9,7 km/h (2 Bft) 100,00 %
09.06.2022 08:54 15,2 C 15,0 C 12,2 C 93 % 1012,8 hPa 0,0 l/m 0 min 0 min 143 W/m 12,9 km/h (3 Bft) 100,00 %
09.06.2022 08:56 15,2 C 15,0 C 12,2 C 93 % 1012,8 hPa 0,0 l/m 0 min 0 min 172 W/m 9,7 km/h (2 Bft) 100,00 %
09.06.2022 08:58 15,2 C 15,0 C 12,2 C 93 % 1012,9 hPa 0,0 l/m 0 min 0 min 177 W/m 6,4 km/h (2 Bft) 100,00 %
09.06.2022 09:00 15,2 C 15,0 C 12,2 C 93 % 1012,9 hPa 0,0 l/m 0 min 0 min 148 W/m 12,9 km/h (3 Bft) 100,00 %
09.06.2022 09:02 15,1 C 15,0 C 12,2 C 93 % 1012,9 hPa 0,0 l/m 0 min 0 min 178 W/m 12,9 km/h (3 Bft) 100,00 %
09.06.2022 09:04 15,1 C 15,0 C 12,2 C 93 % 1013,0 hPa 0,0 l/m 0 min 0 min 187 W/m 6,4 km/h (2 Bft) 95,65 %
09.06.2022 09:06 15,2 C 15,0 C 12,2 C 93 % 1013,0 hPa 0,0 l/m 0 min 0 min 198 W/m 6,4 km/h (2 Bft) 97,87 %
09.06.2022 09:08 15,2 C 15,6 C 12,2 C 93 % 1013,0 hPa 0,0 l/m 0 min 0 min 210 W/m 6,4 km/h (2 Bft) 97,87 %
09.06.2022 09:10 15,2 C 15,6 C 12,8 C 93 % 1013,0 hPa 0,0 l/m 0 min 0 min 244 W/m 12,9 km/h (3 Bft) 97,87 %
09.06.2022 09:12 15,2 C 15,6 C 12,8 C 92 % 1013,1 hPa 0,0 l/m 2 min 0 min 298 W/m 16,1 km/h (3 Bft) 97,87 %
09.06.2022 09:14 15,3 C 15,6 C 12,8 C 92 % 1013,1 hPa 0,0 l/m 2 min 0 min 304 W/m 16,1 km/h (3 Bft) 97,87 %
09.06.2022 09:16 15,3 C 15,6 C 12,8 C 92 % 1013,1 hPa 0,0 l/m 0 min 0 min 229 W/m 16,1 km/h (3 Bft) 95,65 %
09.06.2022 09:18 15,3 C 15,6 C 12,8 C 92 % 1013,2 hPa 0,0 l/m 0 min 0 min 200 W/m 9,7 km/h (2 Bft) 97,87 %
09.06.2022 09:20 15,3 C 15,6 C 12,8 C 92 % 1013,2 hPa 0,0 l/m 0 min 0 min 255 W/m 9,7 km/h (2 Bft) 97,87 %
09.06.2022 09:22 15,3 C 15,6 C 12,8 C 92 % 1013,1 hPa 0,0 l/m 2 min 0 min 333 W/m 12,9 km/h (3 Bft) 95,74 %
09.06.2022 09:24 15,3 C 15,6 C 12,8 C 92 % 1013,2 hPa 0,0 l/m 2 min 0 min 298 W/m 12,9 km/h (3 Bft) 97,87 %
09.06.2022 09:26 15,3 C 15,6 C 12,8 C 92 % 1013,2 hPa 0,0 l/m 0 min 0 min 274 W/m 12,9 km/h (3 Bft) 97,87 %
09.06.2022 09:28 15,3 C 15,6 C 12,8 C 91 % 1013,2 hPa 0,0 l/m 0 min 0 min 185 W/m 9,7 km/h (2 Bft) 97,83 %
09.06.2022 09:30 15,3 C 15,6 C 12,8 C 91 % 1013,3 hPa 0,0 l/m 0 min 0 min 234 W/m 12,9 km/h (3 Bft) 97,87 %
09.06.2022 09:32 15,3 C 16,1 C 12,8 C 91 % 1013,4 hPa 0,0 l/m 0 min 0 min 213 W/m 12,9 km/h (3 Bft) 97,87 %
09.06.2022 09:34 15,3 C 16,7 C 12,8 C 91 % 1013,4 hPa 0,0 l/m 0 min 0 min 214 W/m 12,9 km/h (3 Bft) 95,74 %
09.06.2022 09:36 15,4 C 16,7 C 13,3 C 91 % 1013,4 hPa 0,0 l/m 0 min 0 min 292 W/m 9,7 km/h (2 Bft) 94,92 %
09.06.2022 09:38 15,4 C 17,2 C 13,3 C 91 % 1013,3 hPa 0,0 l/m 2 min 0 min 313 W/m 16,1 km/h (3 Bft) 97,14 %
09.06.2022 09:40 15,6 C 17,8 C 13,9 C 91 % 1013,4 hPa 0,0 l/m 2 min 0 min 452 W/m 16,1 km/h (3 Bft) 93,48 %
09.06.2022 09:42 15,6 C 17,8 C 13,9 C 91 % 1013,4 hPa 0,0 l/m 2 min 0 min 546 W/m 12,9 km/h (3 Bft) 95,74 %
09.06.2022 09:44 15,7 C 18,3 C 14,4 C 91 % 1013,3 hPa 0,0 l/m 0 min 0 min 278 W/m 12,9 km/h (3 Bft) 95,92 %
09.06.2022 09:46 15,8 C 19,4 C 15,0 C 91 % 1013,4 hPa 0,0 l/m 2 min 0 min 747 W/m 6,4 km/h (2 Bft) 97,87 %
09.06.2022 09:48 15,9 C 19,4 C 15,6 C 91 % 1013,4 hPa 0,0 l/m 2 min 0 min 497 W/m 12,9 km/h (3 Bft) 97,87 %
09.06.2022 09:50 16,1 C 19,4 C 15,6 C 90 % 1013,4 hPa 0,0 l/m 2 min 0 min 789 W/m 12,9 km/h (3 Bft) 95,74 %
09.06.2022 09:52 16,2 C 18,9 C 15,6 C 90 % 1013,4 hPa 0,0 l/m 2 min 0 min 467 W/m 12,9 km/h (3 Bft) 97,83 %
09.06.2022 09:54 16,2 C 18,3 C 15,0 C 89 % 1013,4 hPa 0,0 l/m 2 min 0 min 370 W/m 12,9 km/h (3 Bft) 97,87 %
09.06.2022 09:56 16,3 C 17,2 C 14,4 C 88 % 1013,5 hPa 0,0 l/m 0 min 0 min 125 W/m 6,4 km/h (2 Bft) 97,87 %
09.06.2022 09:58 16,3 C 16,7 C 13,9 C 88 % 1013,5 hPa 0,0 l/m 0 min 0 min 93 W/m 12,9 km/h (3 Bft) 97,87 %
09.06.2022 10:00 16,3 C 16,7 C 13,9 C 88 % 1013,5 hPa 0,0 l/m 0 min 0 min 99 W/m 9,7 km/h (2 Bft) 97,87 %
09.06.2022 10:02 16,2 C 16,1 C 13,3 C 88 % 1013,5 hPa 0,0 l/m 0 min 0 min 131 W/m 9,7 km/h (2 Bft) 97,87 %
09.06.2022 10:04 16,2 C 16,1 C 13,3 C 88 % 1013,6 hPa 0,0 l/m 0 min 0 min 163 W/m 6,4 km/h (2 Bft) 97,83 %
09.06.2022 10:06 16,1 C 16,1 C 13,3 C 88 % 1013,6 hPa 0,0 l/m 0 min 0 min 229 W/m 6,4 km/h (2 Bft) 95,74 %
09.06.2022 10:08 16,2 C 16,7 C 13,9 C 88 % 1013,6 hPa 0,0 l/m 0 min 0 min 272 W/m 6,4 km/h (2 Bft) 95,74 %
09.06.2022 10:10 16,2 C 17,8 C 15,0 C 89 % 1013,6 hPa 0,0 l/m 2 min 0 min 346 W/m 12,9 km/h (3 Bft) 97,87 %
09.06.2022 10:12 16,4 C 18,3 C 15,6 C 88 % 1013,6 hPa 0,0 l/m 2 min 0 min 865 W/m 9,7 km/h (2 Bft) 97,87 %
09.06.2022 10:14 16,6 C 18,9 C 15,6 C 88 % 1013,6 hPa 0,0 l/m 2 min 0 min 865 W/m 6,4 km/h (2 Bft) 97,87 %
09.06.2022 10:16 16,6 C 18,3 C 15,6 C 88 % 1013,7 hPa 0,0 l/m 2 min 0 min 641 W/m 16,1 km/h (3 Bft) 95,65 %
09.06.2022 10:18 16,6 C 18,3 C 15,6 C 86 % 1013,7 hPa 0,0 l/m 0 min 0 min 350 W/m 12,9 km/h (3 Bft) 95,74 %
09.06.2022 10:20 16,6 C 17,8 C 15,0 C 86 % 1013,8 hPa 0,0 l/m 0 min 0 min 352 W/m 16,1 km/h (3 Bft) 95,74 %
09.06.2022 10:22 16,7 C 17,2 C 15,0 C 86 % 1013,7 hPa 0,0 l/m 0 min 0 min 343 W/m 12,9 km/h (3 Bft) 95,74 %
09.06.2022 10:24 16,7 C 17,8 C 15,0 C 86 % 1013,8 hPa 0,0 l/m 0 min 0 min 271 W/m 9,7 km/h (2 Bft) 95,74 %
09.06.2022 10:26 16,8 C 17,2 C 14,4 C 86 % 1013,8 hPa 0,0 l/m 0 min 0 min 282 W/m 9,7 km/h (2 Bft) 95,74 %
09.06.2022 10:28 16,8 C 17,2 C 14,4 C 86 % 1013,8 hPa 0,0 l/m 0 min 0 min 252 W/m 16,1 km/h (3 Bft) 95,65 %
09.06.2022 10:30 16,8 C 17,2 C 14,4 C 86 % 1013,9 hPa 0,0 l/m 0 min 0 min 198 W/m 16,1 km/h (3 Bft) 95,74 %
09.06.2022 10:32 16,8 C 17,2 C 14,4 C 87 % 1013,9 hPa 0,0 l/m 0 min 0 min 181 W/m 16,1 km/h (3 Bft) 95,74 %
09.06.2022 10:34 16,8 C 17,2 C 13,9 C 86 % 1013,9 hPa 0,0 l/m 0 min 0 min 212 W/m 12,9 km/h (3 Bft) 95,74 %
09.06.2022 10:36 16,8 C 16,7 C 13,9 C 86 % 1013,9 hPa 0,0 l/m 0 min 0 min 303 W/m 16,1 km/h (3 Bft) 95,74 %
09.06.2022 10:38 16,8 C 17,2 C 14,4 C 86 % 1014,0 hPa 0,0 l/m 2 min 0 min 376 W/m 6,4 km/h (2 Bft) 95,65 %
09.06.2022 10:40 16,9 C 17,2 C 14,4 C 86 % 1014,0 hPa 0,0 l/m 2 min 0 min 388 W/m 12,9 km/h (3 Bft) 95,74 %
09.06.2022 10:42 16,9 C 17,2 C 14,4 C 85 % 1014,0 hPa 0,0 l/m 0 min 0 min 358 W/m 12,9 km/h (3 Bft) 95,74 %
09.06.2022 10:44 16,9 C 17,2 C 14,4 C 85 % 1014,1 hPa 0,0 l/m 0 min 0 min 279 W/m 12,9 km/h (3 Bft) 97,87 %
09.06.2022 10:46 16,9 C 17,2 C 14,4 C 85 % 1014,1 hPa 0,0 l/m 0 min 0 min 243 W/m 16,1 km/h (3 Bft) 95,74 %
09.06.2022 10:48 16,9 C 17,2 C 13,9 C 85 % 1014,2 hPa 0,0 l/m 0 min 0 min 217 W/m 9,7 km/h (2 Bft) 97,87 %
09.06.2022 10:50 16,9 C 16,7 C 13,9 C 85 % 1014,2 hPa 0,0 l/m 0 min 0 min 211 W/m 16,1 km/h (3 Bft) 97,87 %
09.06.2022 10:52 16,9 C 16,7 C 13,9 C 84 % 1014,2 hPa 0,0 l/m 0 min 0 min 178 W/m 12,9 km/h (3 Bft) 97,83 %
09.06.2022 10:54 16,8 C 16,7 C 13,9 C 84 % 1014,2 hPa 0,0 l/m 0 min 0 min 161 W/m 12,9 km/h (3 Bft) 97,87 %
09.06.2022 10:56 16,8 C 16,7 C 13,3 C 84 % 1014,2 hPa 0,0 l/m 0 min 0 min 158 W/m 9,7 km/h (2 Bft) 95,74 %
09.06.2022 10:58 16,8 C 16,7 C 13,3 C 84 % 1014,2 hPa 0,0 l/m 0 min 0 min 155 W/m 6,4 km/h (2 Bft) 97,87 %
09.06.2022 11:00 16,8 C 16,7 C 13,3 C 85 % 1014,2 hPa 0,0 l/m 0 min 0 min 151 W/m 6,4 km/h (2 Bft) 100,00 %
09.06.2022 11:02 16,8 C 16,7 C 13,3 C 85 % 1014,2 hPa 0,0 l/m 0 min 0 min 169 W/m 6,4 km/h (2 Bft) 97,83 %
09.06.2022 11:04 16,7 C 16,7 C 13,3 C 85 % 1014,2 hPa 0,0 l/m 0 min 0 min 203 W/m 6,4 km/h (2 Bft) 100,00 %
09.06.2022 11:06 16,8 C 17,2 C 13,9 C 85 % 1014,2 hPa 0,0 l/m 0 min 0 min 239 W/m 6,4 km/h (2 Bft) 100,00 %
09.06.2022 11:08 16,9 C 17,8 C 13,9 C 86 % 1014,2 hPa 0,0 l/m 0 min 0 min 322 W/m 6,4 km/h (2 Bft) 100,00 %
09.06.2022 11:10 17,0 C 18,3 C 14,4 C 86 % 1014,3 hPa 0,0 l/m 2 min 0 min 476 W/m 9,7 km/h (2 Bft) 100,00 %
09.06.2022 11:12 17,1 C 18,3 C 14,4 C 86 % 1014,3 hPa 0,0 l/m 2 min 0 min 436 W/m 12,9 km/h (3 Bft) 100,00 %
09.06.2022 11:14 17,2 C 18,9 C 15,0 C 86 % 1014,3 hPa 0,0 l/m 2 min 0 min 483 W/m 6,4 km/h (2 Bft) 100,00 %
09.06.2022 11:16 17,4 C 19,4 C 15,6 C 86 % 1014,3 hPa 0,0 l/m 2 min 0 min 774 W/m 16,1 km/h (3 Bft) 100,00 %
09.06.2022 11:18 17,6 C 20,0 C 16,1 C 85 % 1014,2 hPa 0,0 l/m 2 min 0 min 777 W/m 12,9 km/h (3 Bft) 97,87 %
09.06.2022 11:20 17,8 C 20,0 C 16,1 C 85 % 1014,2 hPa 0,0 l/m 2 min 0 min 780 W/m 6,4 km/h (2 Bft) 100,00 %
09.06.2022 11:22 18,0 C 20,0 C 16,1 C 85 % 1014,2 hPa 0,0 l/m 2 min 0 min 841 W/m 9,7 km/h (2 Bft) 100,00 %
09.06.2022 11:24 18,1 C 18,9 C 15,6 C 83 % 1014,3 hPa 0,0 l/m 0 min 0 min 163 W/m 16,1 km/h (3 Bft) 100,00 %
09.06.2022 11:26 17,9 C 18,3 C 15,0 C 82 % 1014,3 hPa 0,0 l/m 0 min 0 min 152 W/m 16,1 km/h (3 Bft) 100,00 %
09.06.2022 11:28 17,8 C 17,2 C 12,8 C 84 % 1014,5 hPa 0,2 l/m 0 min 2 min 133 W/m 12,9 km/h (3 Bft) 100,00 %
09.06.2022 11:30 17,6 C 15,6 C 12,2 C 85 % 1014,5 hPa 0,8 l/m 0 min 2 min 120 W/m 12,9 km/h (3 Bft) 100,00 %
09.06.2022 11:32 17,2 C 14,4 C 11,7 C 86 % 1014,6 hPa 0,6 l/m 0 min 2 min 104 W/m 6,4 km/h (2 Bft) 97,87 %
09.06.2022 11:34 16,9 C 14,4 C 11,1 C 87 % 1014,7 hPa 0,6 l/m 0 min 2 min 77 W/m 12,9 km/h (3 Bft) 95,74 %
09.06.2022 11:36 16,6 C 13,9 C 11,1 C 88 % 1014,8 hPa 0,2 l/m 0 min 2 min 52 W/m 12,9 km/h (3 Bft) 97,87 %
09.06.2022 11:38 16,2 C 13,9 C 10,6 C 88 % 1014,9 hPa 0,2 l/m 0 min 2 min 39 W/m 16,1 km/h (3 Bft) 97,87 %
09.06.2022 11:40 15,9 C 13,3 C 10,6 C 89 % 1014,9 hPa 0,2 l/m 0 min 2 min 44 W/m 16,1 km/h (3 Bft) 95,65 %
09.06.2022 11:42 15,7 C 13,3 C 10,6 C 89 % 1014,9 hPa 0,2 l/m 0 min 2 min 56 W/m 19,3 km/h (3 Bft) 95,74 %
09.06.2022 11:44 15,4 C 12,8 C 10,6 C 89 % 1015,0 hPa 0,0 l/m 0 min 2 min 62 W/m 16,1 km/h (3 Bft) 97,87 %
09.06.2022 11:46 15,3 C 13,3 C 10,6 C 90 % 1015,1 hPa 1,2 l/m 0 min 2 min 71 W/m 6,4 km/h (2 Bft) 97,87 %
09.06.2022 11:48 15,2 C 13,3 C 10,6 C 90 % 1014,9 hPa 1,2 l/m 0 min 2 min 97 W/m 3,2 km/h (1 Bft) 97,87 %
09.06.2022 11:50 15,1 C 12,8 C 10,0 C 90 % 1014,9 hPa 0,2 l/m 0 min 2 min 137 W/m 3,2 km/h (1 Bft) 97,83 %
09.06.2022 11:52 15,0 C 12,8 C 10,0 C 90 % 1014,9 hPa 0,0 l/m 0 min 2 min 163 W/m 3,2 km/h (1 Bft) 97,87 %
09.06.2022 11:54 14,9 C 13,3 C 10,0 C 91 % 1014,9 hPa 0,0 l/m 0 min 0 min 184 W/m 3,2 km/h (1 Bft) 97,87 %
09.06.2022 11:56 14,9 C 13,3 C 10,6 C 91 % 1014,9 hPa 0,0 l/m 0 min 0 min 203 W/m 6,4 km/h (2 Bft) 97,87 %
09.06.2022 11:58 14,8 C 13,3 C 10,6 C 92 % 1014,9 hPa 0,0 l/m 0 min 0 min 215 W/m 3,2 km/h (1 Bft) 95,74 %
09.06.2022 12:00 14,8 C 13,3 C 10,6 C 92 % 1014,9 hPa 0,0 l/m 0 min 2 min 222 W/m 3,2 km/h (1 Bft) 95,74 %
09.06.2022 12:02 14,7 C 13,3 C 10,6 C 92 % 1015,0 hPa 0,0 l/m 0 min 2 min 223 W/m 6,4 km/h (2 Bft) 97,83 %
09.06.2022 12:04 14,8 C 13,9 C 11,1 C 93 % 1015,0 hPa 0,0 l/m 0 min 2 min 231 W/m 3,2 km/h (1 Bft) 97,87 %
09.06.2022 12:07 14,8 C 13,9 C 11,1 C 93 % 1015,0 hPa 0,0 l/m 0 min 3 min 250 W/m 3,2 km/h (1 Bft) 97,18 %
09.06.2022 12:08 14,9 C 13,9 C 11,1 C 93 % 1015,0 hPa 0,0 l/m 0 min 0 min 262 W/m 0,0 km/h (0 Bft) 100,00 %
09.06.2022 12:10 14,9 C 14,4 C 11,1 C 94 % 1015,0 hPa 0,0 l/m 0 min 0 min 267 W/m 3,2 km/h (1 Bft) 97,87 %
09.06.2022 12:12 15,0 C 14,4 C 11,1 C 94 % 1015,0 hPa 0,0 l/m 0 min 0 min 274 W/m 3,2 km/h (1 Bft) 95,74 %
09.06.2022 12:14 15,1 C 14,4 C 11,7 C 94 % 1015,1 hPa 0,0 l/m 0 min 0 min 285 W/m 3,2 km/h (1 Bft) 95,65 %
09.06.2022 12:16 15,1 C 14,4 C 11,7 C 94 % 1015,1 hPa 0,0 l/m 0 min 0 min 291 W/m 0,0 km/h (0 Bft) 97,87 %
09.06.2022 12:18 15,2 C 15,0 C 11,7 C 94 % 1015,1 hPa 0,0 l/m 0 min 0 min 278 W/m 6,4 km/h (2 Bft) 100,00 %
09.06.2022 12:20 15,3 C 15,0 C 12,2 C 95 % 1015,1 hPa 0,0 l/m 0 min 0 min 266 W/m 3,2 km/h (1 Bft) 97,87 %
09.06.2022 12:22 15,4 C 15,0 C 12,2 C 95 % 1015,1 hPa 0,0 l/m 0 min 0 min 274 W/m 6,4 km/h (2 Bft) 100,00 %
09.06.2022 12:24 15,6 C 15,6 C 12,2 C 95 % 1015,1 hPa 0,0 l/m 0 min 0 min 295 W/m 6,4 km/h (2 Bft) 95,74 %
09.06.2022 12:26 15,7 C 15,6 C 12,2 C 95 % 1015,1 hPa 0,0 l/m 0 min 0 min 301 W/m 3,2 km/h (1 Bft) 97,83 %
09.06.2022 12:28 15,8 C 16,1 C 12,2 C 95 % 1015,1 hPa 0,0 l/m 0 min 0 min 311 W/m 3,2 km/h (1 Bft) 97,87 %
09.06.2022 12:30 15,9 C 16,1 C 12,8 C 95 % 1015,2 hPa 0,0 l/m 0 min 0 min 323 W/m 0,0 km/h (0 Bft) 97,87 %
09.06.2022 12:32 16,0 C 16,7 C 12,8 C 95 % 1015,2 hPa 0,0 l/m 0 min 0 min 338 W/m 3,2 km/h (1 Bft) 95,74 %
09.06.2022 12:34 16,1 C 16,7 C 12,8 C 95 % 1015,2 hPa 0,0 l/m 0 min 0 min 349 W/m 6,4 km/h (2 Bft) 97,87 %
09.06.2022 12:36 16,2 C 16,7 C 12,8 C 96 % 1015,2 hPa 0,0 l/m 0 min 0 min 353 W/m 6,4 km/h (2 Bft) 97,87 %
09.06.2022 12:38 16,3 C 16,7 C 12,8 C 96 % 1015,2 hPa 0,0 l/m 0 min 0 min 355 W/m 6,4 km/h (2 Bft) 97,83 %
09.06.2022 12:40 16,3 C 17,2 C 13,3 C 95 % 1015,1 hPa 0,0 l/m 0 min 0 min 384 W/m 6,4 km/h (2 Bft) 97,87 %
09.06.2022 12:42 16,4 C 17,2 C 13,3 C 95 % 1015,1 hPa 0,0 l/m 0 min 0 min 422 W/m 6,4 km/h (2 Bft) 97,87 %
09.06.2022 12:44 16,4 C 17,2 C 13,3 C 95 % 1015,1 hPa 0,0 l/m 2 min 0 min 503 W/m 3,2 km/h (1 Bft) 97,87 %
09.06.2022 12:46 16,6 C 17,2 C 13,9 C 95 % 1015,2 hPa 0,0 l/m 2 min 0 min 478 W/m 9,7 km/h (2 Bft) 97,87 %
09.06.2022 12:48 16,7 C 17,2 C 13,3 C 94 % 1015,2 hPa 0,0 l/m 2 min 0 min 537 W/m 12,9 km/h (3 Bft) 97,87 %
09.06.2022 12:50 16,8 C 17,8 C 15,0 C 94 % 1015,1 hPa 0,0 l/m 2 min 0 min 700 W/m 12,9 km/h (3 Bft) 95,65 %
09.06.2022 12:52 17,0 C 18,3 C 16,1 C 92 % 1015,1 hPa 0,0 l/m 2 min 0 min 1051 W/m 16,1 km/h (3 Bft) 93,62 %
09.06.2022 12:54 17,3 C 18,9 C 16,1 C 91 % 1015,2 hPa 0,0 l/m 2 min 0 min 1039 W/m 12,9 km/h (3 Bft) 97,87 %
09.06.2022 12:56 17,6 C 19,4 C 16,7 C 91 % 1015,2 hPa 0,0 l/m 2 min 0 min 1033 W/m 9,7 km/h (2 Bft) 98,15 %
09.06.2022 12:58 17,8 C 19,4 C 16,7 C 89 % 1015,2 hPa 0,0 l/m 2 min 0 min 1079 W/m 29,0 km/h (5 Bft) 97,87 %
09.06.2022 13:00 17,9 C 18,9 C 15,0 C 86 % 1015,2 hPa 0,0 l/m 2 min 0 min 1040 W/m 12,9 km/h (3 Bft) 97,83 %
09.06.2022 13:02 18,1 C 18,9 C 15,0 C 84 % 1015,2 hPa 0,0 l/m 2 min 0 min 510 W/m 19,3 km/h (3 Bft) 100,00 %
09.06.2022 13:04 18,2 C 18,9 C 15,0 C 84 % 1015,2 hPa 0,0 l/m 2 min 0 min 532 W/m 12,9 km/h (3 Bft) 100,00 %
09.06.2022 13:06 18,4 C 19,4 C 15,0 C 84 % 1015,3 hPa 0,0 l/m 2 min 0 min 623 W/m 16,1 km/h (3 Bft) 97,87 %
09.06.2022 13:08 18,6 C 19,4 C 16,1 C 83 % 1015,3 hPa 0,0 l/m 2 min 0 min 666 W/m 16,1 km/h (3 Bft) 97,87 %
09.06.2022 13:10 18,7 C 19,4 C 15,0 C 83 % 1015,3 hPa 0,0 l/m 2 min 0 min 639 W/m 12,9 km/h (3 Bft) 100,00 %
09.06.2022 13:12 18,7 C 18,9 C 13,9 C 82 % 1015,3 hPa 0,0 l/m 2 min 0 min 459 W/m 12,9 km/h (3 Bft) 100,00 %
09.06.2022 13:14 18,7 C 18,9 C 13,3 C 81 % 1015,4 hPa 0,0 l/m 0 min 0 min 319 W/m 12,9 km/h (3 Bft) 100,00 %
09.06.2022 13:16 18,6 C 18,3 C 12,8 C 81 % 1015,4 hPa 0,0 l/m 0 min 0 min 298 W/m 12,9 km/h (3 Bft) 95,74 %
09.06.2022 13:18 18,4 C 17,8 C 12,8 C 81 % 1015,4 hPa 0,0 l/m 0 min 0 min 263 W/m 19,3 km/h (3 Bft) 100,00 %
09.06.2022 13:20 18,3 C 17,8 C 12,8 C 81 % 1015,4 hPa 0,0 l/m 0 min 0 min 228 W/m 16,1 km/h (3 Bft) 97,87 %
09.06.2022 13:22 18,2 C 17,8 C 12,2 C 81 % 1015,5 hPa 0,0 l/m 0 min 0 min 220 W/m 16,1 km/h (3 Bft) 93,62 %
09.06.2022 13:24 18,1 C 17,8 C 12,8 C 82 % 1015,5 hPa 0,0 l/m 0 min 0 min 216 W/m 6,4 km/h (2 Bft) 97,87 %
09.06.2022 13:26 18,0 C 17,8 C 13,3 C 82 % 1015,5 hPa 0,0 l/m 0 min 0 min 230 W/m 6,4 km/h (2 Bft) 95,65 %
09.06.2022 13:28 17,9 C 17,8 C 13,9 C 83 % 1015,5 hPa 0,0 l/m 0 min 0 min 265 W/m 6,4 km/h (2 Bft) 97,87 %
09.06.2022 13:30 17,8 C 17,8 C 13,9 C 82 % 1015,5 hPa 0,0 l/m 0 min 0 min 298 W/m 9,7 km/h (2 Bft) 95,74 %
09.06.2022 13:32 17,8 C 17,8 C 14,4 C 82 % 1015,6 hPa 0,0 l/m 0 min 0 min 325 W/m 6,4 km/h (2 Bft) 95,74 %
09.06.2022 13:34 17,8 C 18,3 C 14,4 C 83 % 1015,5 hPa 0,0 l/m 0 min 0 min 373 W/m 6,4 km/h (2 Bft) 97,87 %
09.06.2022 13:36 17,8 C 18,9 C 16,1 C 83 % 1015,5 hPa 0,0 l/m 0 min 0 min 401 W/m 16,1 km/h (3 Bft) 96,55 %
09.06.2022 13:38 17,9 C 19,4 C 17,8 C 83 % 1015,6 hPa 0,0 l/m 2 min 0 min 631 W/m 12,9 km/h (3 Bft) 100,00 %
09.06.2022 13:40 18,1 C 19,4 C 18,3 C 82 % 1015,6 hPa 0,0 l/m 2 min 0 min 646 W/m 12,9 km/h (3 Bft) 95,74 %
09.06.2022 13:42 18,2 C 18,9 C 17,8 C 82 % 1015,6 hPa 0,0 l/m 2 min 0 min 493 W/m 12,9 km/h (3 Bft) 97,87 %
09.06.2022 13:44 18,2 C 18,9 C 17,2 C 81 % 1015,6 hPa 0,0 l/m 0 min 0 min 416 W/m 16,1 km/h (3 Bft) 97,87 %
09.06.2022 13:46 18,2 C 18,9 C 16,7 C 81 % 1015,7 hPa 0,0 l/m 0 min 0 min 384 W/m 16,1 km/h (3 Bft) 97,87 %
09.06.2022 13:48 18,2 C 18,9 C 16,1 C 80 % 1015,7 hPa 0,0 l/m 0 min 0 min 322 W/m 16,1 km/h (3 Bft) 97,87 %
09.06.2022 13:50 18,2 C 18,9 C 15,6 C 80 % 1015,7 hPa 0,0 l/m 0 min 0 min 337 W/m 12,9 km/h (3 Bft) 97,83 %
09.06.2022 13:52 18,2 C 18,9 C 16,1 C 79 % 1015,7 hPa 0,0 l/m 0 min 0 min 411 W/m 16,1 km/h (3 Bft) 97,87 %
09.06.2022 13:54 18,3 C 20,6 C 17,2 C 80 % 1015,7 hPa 0,0 l/m 2 min 0 min 924 W/m 6,4 km/h (2 Bft) 95,74 %
09.06.2022 13:56 18,5 C 21,1 C 18,3 C 80 % 1015,7 hPa 0,0 l/m 2 min 0 min 1195 W/m 16,1 km/h (3 Bft) 95,74 %
09.06.2022 13:58 18,8 C 21,1 C 18,3 C 80 % 1015,7 hPa 0,0 l/m 2 min 0 min 1199 W/m 19,3 km/h (3 Bft) 97,87 %
09.06.2022 14:00 19,0 C 21,1 C 18,3 C 79 % 1015,8 hPa 0,0 l/m 2 min 0 min 1199 W/m 25,7 km/h (4 Bft) 95,74 %
09.06.2022 14:02 19,2 C 21,1 C 17,8 C 79 % 1015,8 hPa 0,0 l/m 2 min 0 min 887 W/m 12,9 km/h (3 Bft) 97,83 %
09.06.2022 14:04 19,3 C 20,6 C 17,8 C 78 % 1015,8 hPa 0,0 l/m 0 min 0 min 357 W/m 12,9 km/h (3 Bft) 97,87 %
09.06.2022 14:06 19,3 C 20,6 C 17,2 C 78 % 1015,8 hPa 0,0 l/m 0 min 0 min 361 W/m 16,1 km/h (3 Bft) 96,61 %
09.06.2022 14:08 19,3 C 20,0 C 17,2 C 78 % 1015,8 hPa 0,0 l/m 2 min 0 min 823 W/m 19,3 km/h (3 Bft) 100,00 %
09.06.2022 14:10 19,3 C 20,0 C 16,7 C 78 % 1015,8 hPa 0,0 l/m 0 min 0 min 271 W/m 12,9 km/h (3 Bft) 95,74 %
09.06.2022 14:12 19,2 C 19,4 C 16,1 C 77 % 1015,8 hPa 0,0 l/m 0 min 0 min 217 W/m 19,3 km/h (3 Bft) 91,49 %
09.06.2022 14:14 19,1 C 18,9 C 16,1 C 77 % 1015,8 hPa 0,0 l/m 0 min 0 min 191 W/m 19,3 km/h (3 Bft) 95,65 %
09.06.2022 14:16 19,1 C 18,9 C 15,6 C 77 % 1015,9 hPa 0,0 l/m 0 min 0 min 152 W/m 12,9 km/h (3 Bft) 91,49 %
09.06.2022 14:18 18,9 C 18,3 C 15,6 C 77 % 1015,9 hPa 0,0 l/m 0 min 0 min 107 W/m 12,9 km/h (3 Bft) 95,74 %
09.06.2022 14:20 18,8 C 18,3 C 15,0 C 77 % 1016,0 hPa 0,0 l/m 0 min 0 min 76 W/m 6,4 km/h (2 Bft) 93,62 %
09.06.2022 14:22 18,7 C 17,8 C 15,0 C 78 % 1016,0 hPa 0,0 l/m 0 min 0 min 50 W/m 6,4 km/h (2 Bft) 95,74 %
09.06.2022 14:24 18,6 C 17,8 C 15,0 C 79 % 1016,0 hPa 0,0 l/m 0 min 0 min 36 W/m 12,9 km/h (3 Bft) 97,87 %
09.06.2022 14:26 18,6 C 17,2 C 14,4 C 80 % 1016,1 hPa 0,0 l/m 0 min 2 min 32 W/m 35,4 km/h (5 Bft) 97,83 %
09.06.2022 14:28 18,3 C 17,2 C 14,4 C 80 % 1016,1 hPa 0,0 l/m 0 min 0 min 40 W/m 19,3 km/h (3 Bft) 95,74 %
09.06.2022 14:30 18,1 C 16,7 C 13,9 C 81 % 1016,1 hPa 0,0 l/m 0 min 0 min 59 W/m 22,5 km/h (4 Bft) 93,62 %
09.06.2022 14:32 17,8 C 15,6 C 12,8 C 82 % 1016,3 hPa 0,2 l/m 0 min 2 min 77 W/m 22,5 km/h (4 Bft) 95,74 %
09.06.2022 14:34 17,6 C 15,0 C 11,7 C 83 % 1016,4 hPa 0,2 l/m 0 min 2 min 88 W/m 16,1 km/h (3 Bft) 93,62 %
09.06.2022 14:36 17,2 C 14,4 C 11,1 C 84 % 1016,4 hPa 0,2 l/m 0 min 2 min 92 W/m 22,5 km/h (4 Bft) 93,62 %
09.06.2022 14:38 16,9 C 14,4 C 10,6 C 85 % 1016,5 hPa 0,4 l/m 0 min 2 min 104 W/m 12,9 km/h (3 Bft) 93,88 %
09.06.2022 14:40 16,7 C 13,9 C 10,6 C 86 % 1016,5 hPa 0,0 l/m 0 min 2 min 111 W/m 16,1 km/h (3 Bft) 95,74 %
09.06.2022 14:42 16,4 C 13,9 C 10,6 C 87 % 1016,5 hPa 0,0 l/m 0 min 2 min 122 W/m 12,9 km/h (3 Bft) 97,87 %
09.06.2022 14:44 16,2 C 13,9 C 10,6 C 87 % 1016,5 hPa 0,0 l/m 0 min 2 min 136 W/m 16,1 km/h (3 Bft) 95,74 %
09.06.2022 14:46 16,1 C 14,4 C 10,6 C 88 % 1016,5 hPa 0,0 l/m 0 min 2 min 145 W/m 9,7 km/h (2 Bft) 95,74 %
09.06.2022 14:48 16,0 C 14,4 C 10,6 C 88 % 1016,6 hPa 0,0 l/m 0 min 2 min 157 W/m 16,1 km/h (3 Bft) 95,65 %
09.06.2022 14:50 15,9 C 14,4 C 10,6 C 88 % 1016,5 hPa 0,0 l/m 0 min 2 min 169 W/m 16,1 km/h (3 Bft) 91,49 %
09.06.2022 14:52 15,7 C 14,4 C 10,6 C 88 % 1016,6 hPa 0,0 l/m 0 min 0 min 184 W/m 16,1 km/h (3 Bft) 95,74 %
09.06.2022 14:54 15,7 C 14,4 C 10,6 C 88 % 1016,6 hPa 0,0 l/m 0 min 0 min 197 W/m 12,9 km/h (3 Bft) 95,74 %
09.06.2022 14:56 15,6 C 15,0 C 10,6 C 88 % 1016,7 hPa 0,0 l/m 0 min 0 min 203 W/m 16,1 km/h (3 Bft) 95,74 %
09.06.2022 14:58 15,6 C 15,0 C 10,6 C 88 % 1016,7 hPa 0,0 l/m 0 min 0 min 207 W/m 16,1 km/h (3 Bft) 97,87 %
09.06.2022 15:00 15,5 C 15,0 C 10,6 C 89 % 1016,7 hPa 0,0 l/m 0 min 0 min 213 W/m 19,3 km/h (3 Bft) 100,00 %
09.06.2022 15:02 15,4 C 15,0 C 10,6 C 89 % 1016,8 hPa 0,0 l/m 0 min 0 min 224 W/m 12,9 km/h (3 Bft) 97,92 %
09.06.2022 15:04 15,4 C 15,0 C 10,6 C 89 % 1016,7 hPa 0,0 l/m 0 min 0 min 239 W/m 19,3 km/h (3 Bft) 100,00 %
09.06.2022 15:06 15,4 C 15,0 C 10,6 C 89 % 1016,8 hPa 0,0 l/m 0 min 0 min 262 W/m 16,1 km/h (3 Bft) 97,87 %
09.06.2022 15:08 15,5 C 15,6 C 10,6 C 89 % 1016,8 hPa 0,0 l/m 0 min 0 min 287 W/m 12,9 km/h (3 Bft) 100,00 %
09.06.2022 15:10 15,5 C 15,6 C 10,6 C 89 % 1016,8 hPa 0,0 l/m 0 min 0 min 314 W/m 12,9 km/h (3 Bft) 100,00 %
09.06.2022 15:12 15,6 C 15,6 C 10,6 C 89 % 1016,8 hPa 0,0 l/m 0 min 0 min 380 W/m 22,5 km/h (4 Bft) 100,00 %
09.06.2022 15:14 15,6 C 16,1 C 11,1 C 89 % 1016,8 hPa 0,0 l/m 2 min 0 min 432 W/m 12,9 km/h (3 Bft) 97,87 %
09.06.2022 15:16 15,8 C 16,7 C 11,1 C 89 % 1016,8 hPa 0,0 l/m 0 min 0 min 401 W/m 6,4 km/h (2 Bft) 97,87 %
09.06.2022 15:18 15,9 C 16,7 C 11,1 C 89 % 1016,8 hPa 0,0 l/m 0 min 0 min 380 W/m 12,9 km/h (3 Bft) 100,00 %
09.06.2022 15:20 15,9 C 16,1 C 11,1 C 89 % 1016,9 hPa 0,0 l/m 0 min 0 min 344 W/m 19,3 km/h (3 Bft) 100,00 %
09.06.2022 15:22 15,9 C 16,1 C 11,1 C 88 % 1016,9 hPa 0,0 l/m 0 min 0 min 308 W/m 16,1 km/h (3 Bft) 100,00 %
09.06.2022 15:24 16,0 C 16,1 C 11,1 C 87 % 1016,9 hPa 0,0 l/m 0 min 0 min 289 W/m 12,9 km/h (3 Bft) 100,00 %
09.06.2022 15:26 16,0 C 16,1 C 11,1 C 87 % 1016,9 hPa 0,0 l/m 0 min 0 min 297 W/m 19,3 km/h (3 Bft) 100,00 %
09.06.2022 15:28 16,1 C 16,7 C 11,7 C 88 % 1016,9 hPa 0,0 l/m 0 min 0 min 313 W/m 12,9 km/h (3 Bft) 100,00 %
09.06.2022 15:30 16,3 C 16,7 C 11,7 C 88 % 1017,0 hPa 0,0 l/m 0 min 0 min 312 W/m 16,1 km/h (3 Bft) 100,00 %
09.06.2022 15:32 16,4 C 16,7 C 11,7 C 88 % 1017,0 hPa 0,0 l/m 0 min 0 min 304 W/m 6,4 km/h (2 Bft) 100,00 %
09.06.2022 15:34 16,5 C 17,2 C 11,7 C 88 % 1017,1 hPa 0,0 l/m 0 min 0 min 287 W/m 16,1 km/h (3 Bft) 100,00 %
09.06.2022 15:36 16,6 C 17,2 C 11,7 C 87 % 1017,1 hPa 0,0 l/m 0 min 0 min 276 W/m 9,7 km/h (2 Bft) 97,83 %
09.06.2022 15:38 16,6 C 17,2 C 11,7 C 86 % 1017,1 hPa 0,0 l/m 0 min 0 min 275 W/m 16,1 km/h (3 Bft) 100,00 %
09.06.2022 15:40 16,7 C 17,2 C 11,7 C 86 % 1017,2 hPa 0,0 l/m 0 min 0 min 273 W/m 12,9 km/h (3 Bft) 100,00 %
09.06.2022 15:42 16,7 C 17,2 C 11,7 C 86 % 1017,3 hPa 0,0 l/m 0 min 0 min 270 W/m 19,3 km/h (3 Bft) 100,00 %
09.06.2022 15:44 16,8 C 17,2 C 11,7 C 85 % 1017,3 hPa 0,0 l/m 0 min 0 min 263 W/m 16,1 km/h (3 Bft) 97,87 %
09.06.2022 15:46 16,8 C 17,2 C 11,7 C 84 % 1017,3 hPa 0,0 l/m 0 min 0 min 262 W/m 12,9 km/h (3 Bft) 97,87 %
09.06.2022 15:48 16,9 C 17,2 C 11,7 C 85 % 1017,3 hPa 0,0 l/m 0 min 0 min 270 W/m 12,9 km/h (3 Bft) 100,00 %
09.06.2022 15:50 16,9 C 17,2 C 11,7 C 85 % 1017,3 hPa 0,0 l/m 0 min 0 min 278 W/m 12,9 km/h (3 Bft) 100,00 %
09.06.2022 15:52 16,9 C 17,2 C 11,7 C 84 % 1017,3 hPa 0,0 l/m 0 min 0 min 287 W/m 12,9 km/h (3 Bft) 100,00 %
09.06.2022 15:54 16,9 C 17,2 C 11,7 C 84 % 1017,4 hPa 0,0 l/m 0 min 0 min 299 W/m 12,9 km/h (3 Bft) 100,00 %
09.06.2022 15:56 17,0 C 17,2 C 11,7 C 85 % 1017,4 hPa 0,0 l/m 0 min 0 min 305 W/m 16,1 km/h (3 Bft) 100,00 %
09.06.2022 15:58 17,0 C 17,2 C 11,7 C 84 % 1017,4 hPa 0,0 l/m 0 min 0 min 297 W/m 19,3 km/h (3 Bft) 100,00 %
09.06.2022 16:00 17,1 C 17,8 C 12,2 C 85 % 1017,4 hPa 0,0 l/m 0 min 0 min 313 W/m 12,9 km/h (3 Bft) 100,00 %
09.06.2022 16:02 17,1 C 18,3 C 12,2 C 85 % 1017,4 hPa 0,0 l/m 0 min 0 min 348 W/m 12,9 km/h (3 Bft) 100,00 %
09.06.2022 16:04 17,2 C 19,4 C 12,2 C 85 % 1017,3 hPa 0,0 l/m 2 min 0 min 793 W/m 12,9 km/h (3 Bft) 100,00 %
09.06.2022 16:06 17,4 C 20,0 C 12,8 C 85 % 1017,4 hPa 0,0 l/m 2 min 0 min 832 W/m 12,9 km/h (3 Bft) 100,00 %
09.06.2022 16:08 17,6 C 20,6 C 12,8 C 85 % 1017,4 hPa 0,2 l/m 2 min 0 min 734 W/m 12,9 km/h (3 Bft) 100,00 %
09.06.2022 16:10 17,8 C 22,2 C 12,8 C 85 % 1017,4 hPa 0,0 l/m 2 min 0 min 966 W/m 9,7 km/h (2 Bft) 100,00 %
09.06.2022 16:12 18,1 C 22,8 C 13,3 C 85 % 1017,4 hPa 0,0 l/m 2 min 0 min 972 W/m 12,9 km/h (3 Bft) 97,83 %
09.06.2022 16:14 18,3 C 23,3 C 13,3 C 84 % 1017,5 hPa 0,0 l/m 2 min 0 min 972 W/m 12,9 km/h (3 Bft) 97,87 %
09.06.2022 16:16 18,5 C 23,3 C 13,3 C 83 % 1017,4 hPa 0,0 l/m 2 min 0 min 992 W/m 12,9 km/h (3 Bft) 97,87 %
09.06.2022 16:18 18,8 C 23,9 C 13,3 C 83 % 1017,5 hPa 0,0 l/m 2 min 0 min 733 W/m 12,9 km/h (3 Bft) 97,87 %
09.06.2022 16:20 18,9 C 23,9 C 13,3 C 81 % 1017,4 hPa 0,0 l/m 2 min 0 min 861 W/m 19,3 km/h (3 Bft) 97,87 %
09.06.2022 16:22 19,1 C 22,8 C 13,9 C 82 % 1017,5 hPa 0,0 l/m 2 min 0 min 689 W/m 9,7 km/h (2 Bft) 95,65 %
09.06.2022 16:24 19,2 C 22,2 C 13,3 C 81 % 1017,5 hPa 0,0 l/m 2 min 0 min 459 W/m 9,7 km/h (2 Bft) 97,87 %
09.06.2022 16:26 19,3 C 22,2 C 13,3 C 81 % 1017,6 hPa 0,0 l/m 2 min 0 min 448 W/m 6,4 km/h (2 Bft) 97,87 %
09.06.2022 16:28 19,4 C 21,7 C 13,3 C 80 % 1017,6 hPa 0,0 l/m 2 min 0 min 448 W/m 12,9 km/h (3 Bft) 97,87 %
09.06.2022 16:30 19,4 C 21,1 C 13,3 C 80 % 1017,6 hPa 0,0 l/m 2 min 0 min 424 W/m 12,9 km/h (3 Bft) 95,74 %
09.06.2022 16:32 19,4 C 20,6 C 13,3 C 79 % 1017,6 hPa 0,0 l/m 2 min 0 min 392 W/m 9,7 km/h (2 Bft) 97,87 %
09.06.2022 16:34 19,5 C 22,2 C 13,3 C 79 % 1017,6 hPa 0,0 l/m 2 min 0 min 487 W/m 6,4 km/h (2 Bft) 95,65 %
09.06.2022 16:36 19,5 C 22,8 C 13,9 C 79 % 1017,7 hPa 0,0 l/m 2 min 0 min 959 W/m 6,4 km/h (2 Bft) 93,62 %
09.06.2022 16:38 19,6 C 22,8 C 13,9 C 79 % 1017,7 hPa 0,0 l/m 2 min 0 min 698 W/m 6,4 km/h (2 Bft) 95,74 %
09.06.2022 16:40 19,6 C 22,2 C 14,4 C 78 % 1017,7 hPa 0,0 l/m 2 min 0 min 516 W/m 6,4 km/h (2 Bft) 95,74 %
09.06.2022 16:42 19,6 C 21,7 C 15,0 C 77 % 1017,8 hPa 0,0 l/m 2 min 0 min 461 W/m 6,4 km/h (2 Bft) 95,74 %
09.06.2022 16:44 19,7 C 22,8 C 15,0 C 77 % 1017,8 hPa 0,0 l/m 2 min 0 min 553 W/m 6,4 km/h (2 Bft) 93,62 %
09.06.2022 16:46 19,7 C 23,9 C 15,6 C 77 % 1017,8 hPa 0,0 l/m 2 min 0 min 743 W/m 12,9 km/h (3 Bft) 95,65 %
09.06.2022 16:48 19,8 C 23,3 C 15,6 C 77 % 1017,8 hPa 0,0 l/m 2 min 0 min 709 W/m 6,4 km/h (2 Bft) 95,74 %
09.06.2022 16:50 19,8 C 23,3 C 16,1 C 77 % 1017,8 hPa 0,0 l/m 2 min 0 min 557 W/m 6,4 km/h (2 Bft) 95,74 %
09.06.2022 16:52 19,9 C 22,2 C 16,1 C 76 % 1017,8 hPa 0,0 l/m 2 min 0 min 445 W/m 19,3 km/h (3 Bft) 93,62 %
09.06.2022 16:54 19,8 C 21,7 C 16,1 C 75 % 1017,9 hPa 0,0 l/m 2 min 0 min 371 W/m 6,4 km/h (2 Bft) 93,62 %
09.06.2022 16:56 19,8 C 21,1 C 15,6 C 75 % 1017,9 hPa 0,0 l/m 0 min 0 min 344 W/m 6,4 km/h (2 Bft) 97,87 %
09.06.2022 16:58 19,8 C 21,1 C 15,6 C 76 % 1017,9 hPa 0,0 l/m 2 min 0 min 358 W/m 6,4 km/h (2 Bft) 95,74 %
09.06.2022 17:00 19,9 C 21,1 C 15,6 C 76 % 1017,9 hPa 0,0 l/m 2 min 0 min 407 W/m 3,2 km/h (1 Bft) 97,83 %
09.06.2022 17:02 19,9 C 21,7 C 15,6 C 75 % 1017,9 hPa 0,0 l/m 2 min 0 min 477 W/m 6,4 km/h (2 Bft) 95,74 %
09.06.2022 17:04 19,9 C 21,7 C 15,6 C 75 % 1017,9 hPa 0,0 l/m 2 min 0 min 467 W/m 3,2 km/h (1 Bft) 95,74 %
09.06.2022 17:06 19,9 C 21,7 C 16,1 C 75 % 1018,0 hPa 0,0 l/m 2 min 0 min 375 W/m 12,9 km/h (3 Bft) 95,74 %
09.06.2022 17:08 19,9 C 21,1 C 16,1 C 72 % 1017,9 hPa 0,0 l/m 2 min 0 min 349 W/m 9,7 km/h (2 Bft) 93,62 %
09.06.2022 17:10 19,9 C 21,1 C 16,1 C 68 % 1017,9 hPa 0,0 l/m 2 min 0 min 347 W/m 9,7 km/h (2 Bft) 95,65 %
09.06.2022 17:12 19,9 C 21,1 C 16,1 C 67 % 1017,9 hPa 0,0 l/m 2 min 0 min 364 W/m 9,7 km/h (2 Bft) 93,62 %
09.06.2022 17:14 19,9 C 21,1 C 16,1 C 68 % 1017,9 hPa 0,0 l/m 2 min 0 min 363 W/m 6,4 km/h (2 Bft) 95,74 %
09.06.2022 17:16 19,9 C 20,6 C 16,1 C 68 % 1017,9 hPa 0,0 l/m 2 min 0 min 375 W/m 12,9 km/h (3 Bft) 95,74 %
09.06.2022 17:18 19,9 C 21,1 C 16,1 C 67 % 1018,0 hPa 0,0 l/m 2 min 0 min 394 W/m 6,4 km/h (2 Bft) 97,87 %
09.06.2022 17:20 20,0 C 21,7 C 16,1 C 69 % 1018,0 hPa 0,0 l/m 2 min 0 min 503 W/m 6,4 km/h (2 Bft) 95,74 %
09.06.2022 17:22 20,1 C 22,2 C 16,1 C 69 % 1018,0 hPa 0,0 l/m 2 min 0 min 744 W/m 9,7 km/h (2 Bft) 93,62 %
09.06.2022 17:24 20,2 C 22,8 C 16,1 C 71 % 1017,9 hPa 0,0 l/m 2 min 0 min 744 W/m 12,9 km/h (3 Bft) 93,48 %
09.06.2022 17:26 20,3 C 22,8 C 16,1 C 73 % 1018,1 hPa 0,0 l/m 2 min 0 min 744 W/m 9,7 km/h (2 Bft) 93,62 %
09.06.2022 17:28 20,4 C 22,8 C 16,1 C 73 % 1018,0 hPa 0,0 l/m 2 min 0 min 497 W/m 12,9 km/h (3 Bft) 95,74 %
09.06.2022 17:30 20,4 C 22,8 C 16,1 C 74 % 1018,1 hPa 0,0 l/m 2 min 0 min 519 W/m 12,9 km/h (3 Bft) 95,74 %
09.06.2022 17:32 20,4 C 21,7 C 16,1 C 73 % 1018,1 hPa 0,0 l/m 2 min 0 min 325 W/m 6,4 km/h (2 Bft) 95,74 %
09.06.2022 17:34 20,4 C 21,1 C 16,1 C 73 % 1018,1 hPa 0,0 l/m 0 min 0 min 249 W/m 12,9 km/h (3 Bft) 97,83 %
09.06.2022 17:36 20,3 C 20,6 C 16,1 C 74 % 1018,1 hPa 0,0 l/m 0 min 0 min 249 W/m 9,7 km/h (2 Bft) 97,87 %
09.06.2022 17:38 20,2 C 20,0 C 15,6 C 75 % 1018,2 hPa 0,0 l/m 0 min 0 min 256 W/m 16,1 km/h (3 Bft) 97,87 %
09.06.2022 17:40 20,0 C 20,0 C 15,6 C 75 % 1018,2 hPa 0,0 l/m 0 min 0 min 262 W/m 9,7 km/h (2 Bft) 97,87 %
09.06.2022 17:42 19,9 C 20,0 C 15,6 C 75 % 1018,2 hPa 0,0 l/m 0 min 0 min 264 W/m 12,9 km/h (3 Bft) 97,87 %
09.06.2022 17:44 19,8 C 20,0 C 15,6 C 76 % 1018,1 hPa 0,0 l/m 0 min 0 min 263 W/m 6,4 km/h (2 Bft) 100,00 %
09.06.2022 17:46 19,8 C 20,0 C 15,6 C 76 % 1018,1 hPa 0,0 l/m 0 min 0 min 253 W/m 6,4 km/h (2 Bft) 97,83 %
09.06.2022 17:48 19,7 C 19,4 C 15,6 C 76 % 1018,1 hPa 0,0 l/m 0 min 0 min 232 W/m 6,4 km/h (2 Bft) 100,00 %
09.06.2022 17:50 19,7 C 19,4 C 15,6 C 75 % 1018,2 hPa 0,0 l/m 0 min 0 min 218 W/m 6,4 km/h (2 Bft) 100,00 %
09.06.2022 17:52 19,7 C 19,4 C 15,0 C 75 % 1018,1 hPa 0,0 l/m 0 min 0 min 208 W/m 9,7 km/h (2 Bft) 100,00 %
09.06.2022 17:54 19,6 C 19,4 C 15,0 C 74 % 1018,2 hPa 0,0 l/m 0 min 0 min 196 W/m 9,7 km/h (2 Bft) 100,00 %
09.06.2022 17:56 19,6 C 18,9 C 15,0 C 75 % 1018,2 hPa 0,0 l/m 0 min 0 min 184 W/m 6,4 km/h (2 Bft) 100,00 %
09.06.2022 17:58 19,6 C 18,9 C 15,0 C 75 % 1018,3 hPa 0,0 l/m 0 min 0 min 173 W/m 12,9 km/h (3 Bft) 100,00 %
09.06.2022 18:00 19,6 C 19,4 C 15,0 C 76 % 1018,2 hPa 0,0 l/m 0 min 0 min 180 W/m 6,4 km/h (2 Bft) 100,00 %
09.06.2022 18:02 19,5 C 19,4 C 15,0 C 76 % 1018,2 hPa 0,0 l/m 0 min 0 min 177 W/m 6,4 km/h (2 Bft) 100,00 %
09.06.2022 18:04 19,5 C 18,9 C 15,0 C 76 % 1018,2 hPa 0,0 l/m 0 min 0 min 182 W/m 6,4 km/h (2 Bft) 100,00 %
09.06.2022 18:07 19,4 C 18,9 C 15,0 C 76 % 1018,2 hPa 0,0 l/m 0 min 0 min 188 W/m 12,9 km/h (3 Bft) 100,00 %
09.06.2022 18:08 19,4 C 18,9 C 15,0 C 76 % 1018,2 hPa 0,0 l/m 0 min 0 min 196 W/m 6,4 km/h (2 Bft) 100,00 %
09.06.2022 18:10 19,4 C 18,9 C 15,0 C 76 % 1018,2 hPa 0,0 l/m 0 min 0 min 202 W/m 3,2 km/h (1 Bft) 100,00 %
09.06.2022 18:12 19,4 C 18,9 C 15,0 C 75 % 1018,2 hPa 0,0 l/m 0 min 0 min 199 W/m 3,2 km/h (1 Bft) 100,00 %
09.06.2022 18:14 19,4 C 18,9 C 15,0 C 76 % 1018,1 hPa 0,0 l/m 0 min 0 min 192 W/m 6,4 km/h (2 Bft) 100,00 %
09.06.2022 18:16 19,4 C 18,9 C 15,6 C 76 % 1018,1 hPa 0,0 l/m 0 min 0 min 191 W/m 9,7 km/h (2 Bft) 100,00 %
09.06.2022 18:18 19,4 C 18,9 C 15,6 C 77 % 1018,2 hPa 0,0 l/m 0 min 0 min 183 W/m 12,9 km/h (3 Bft) 100,00 %
09.06.2022 18:20 19,4 C 18,9 C 15,6 C 77 % 1018,1 hPa 0,0 l/m 0 min 0 min 164 W/m 3,2 km/h (1 Bft) 100,00 %
09.06.2022 18:22 19,4 C 19,4 C 15,6 C 77 % 1018,1 hPa 0,0 l/m 0 min 0 min 159 W/m 3,2 km/h (1 Bft) 100,00 %
09.06.2022 18:24 19,5 C 19,4 C 15,0 C 77 % 1018,2 hPa 0,0 l/m 0 min 0 min 157 W/m 3,2 km/h (1 Bft) 100,00 %
09.06.2022 18:26 19,5 C 18,9 C 15,0 C 77 % 1018,2 hPa 0,0 l/m 0 min 0 min 159 W/m 6,4 km/h (2 Bft) 97,87 %
09.06.2022 18:28 19,5 C 18,9 C 15,0 C 77 % 1018,2 hPa 0,0 l/m 0 min 0 min 164 W/m 6,4 km/h (2 Bft) 100,00 %
09.06.2022 18:30 19,5 C 18,9 C 15,0 C 77 % 1018,3 hPa 0,0 l/m 0 min 0 min 168 W/m 6,4 km/h (2 Bft) 100,00 %
09.06.2022 18:32 19,4 C 18,9 C 15,0 C 76 % 1018,2 hPa 0,0 l/m 0 min 0 min 167 W/m 9,7 km/h (2 Bft) 97,92 %
09.06.2022 18:34 19,4 C 18,9 C 15,0 C 76 % 1018,2 hPa 0,0 l/m 0 min 0 min 149 W/m 3,2 km/h (1 Bft) 97,83 %
09.06.2022 18:36 19,3 C 18,9 C 15,0 C 76 % 1018,2 hPa 0,0 l/m 0 min 0 min 128 W/m 6,4 km/h (2 Bft) 97,87 %
09.06.2022 18:38 19,3 C 18,9 C 15,0 C 76 % 1018,3 hPa 0,0 l/m 0 min 0 min 114 W/m 6,4 km/h (2 Bft) 97,87 %
09.06.2022 18:40 19,3 C 18,9 C 15,0 C 76 % 1018,3 hPa 0,0 l/m 0 min 0 min 113 W/m 6,4 km/h (2 Bft) 97,87 %
09.06.2022 18:42 19,2 C 18,3 C 15,0 C 76 % 1018,3 hPa 0,0 l/m 0 min 0 min 112 W/m 6,4 km/h (2 Bft) 97,87 %
09.06.2022 18:44 19,2 C 18,3 C 15,0 C 76 % 1018,3 hPa 0,0 l/m 0 min 0 min 109 W/m 6,4 km/h (2 Bft) 97,87 %
09.06.2022 18:46 19,1 C 18,3 C 15,0 C 76 % 1018,3 hPa 0,0 l/m 0 min 0 min 109 W/m 12,9 km/h (3 Bft) 97,83 %
09.06.2022 18:48 19,1 C 18,3 C 15,0 C 76 % 1018,4 hPa 0,0 l/m 0 min 0 min 112 W/m 12,9 km/h (3 Bft) 97,87 %
09.06.2022 18:50 19,1 C 18,3 C 15,0 C 76 % 1018,4 hPa 0,0 l/m 0 min 0 min 114 W/m 3,2 km/h (1 Bft) 97,87 %
09.06.2022 18:52 19,1 C 18,3 C 15,0 C 77 % 1018,3 hPa 0,0 l/m 0 min 0 min 118 W/m 6,4 km/h (2 Bft) 97,87 %
09.06.2022 18:54 19,1 C 18,9 C 15,0 C 77 % 1018,4 hPa 0,0 l/m 0 min 0 min 128 W/m 3,2 km/h (1 Bft) 97,87 %
09.06.2022 18:56 19,1 C 18,9 C 15,0 C 78 % 1018,4 hPa 0,0 l/m 0 min 0 min 146 W/m 6,4 km/h (2 Bft) 97,87 %
09.06.2022 18:58 19,1 C 19,4 C 15,0 C 77 % 1018,5 hPa 0,0 l/m 0 min 0 min 170 W/m 6,4 km/h (2 Bft) 97,83 %
09.06.2022 19:00 19,1 C 18,9 C 15,0 C 77 % 1018,5 hPa 0,0 l/m 0 min 0 min 174 W/m 6,4 km/h (2 Bft) 97,87 %
09.06.2022 19:02 19,1 C 18,9 C 15,0 C 77 % 1018,5 hPa 0,0 l/m 0 min 0 min 182 W/m 6,4 km/h (2 Bft) 97,22 %
09.06.2022 19:04 19,1 C 18,9 C 15,0 C 77 % 1018,6 hPa 0,0 l/m 2 min 0 min 196 W/m 3,2 km/h (1 Bft) 97,87 %
09.06.2022 19:06 19,1 C 19,4 C 15,0 C 77 % 1018,6 hPa 0,0 l/m 2 min 0 min 243 W/m 6,4 km/h (2 Bft) 96,61 %
09.06.2022 19:08 19,2 C 20,0 C 15,0 C 77 % 1018,5 hPa 0,0 l/m 2 min 0 min 342 W/m 6,4 km/h (2 Bft) 100,00 %
09.06.2022 19:10 19,2 C 19,4 C 15,0 C 77 % 1018,5 hPa 0,0 l/m 2 min 0 min 197 W/m 6,4 km/h (2 Bft) 100,00 %
09.06.2022 19:12 19,2 C 20,0 C 15,0 C 77 % 1018,5 hPa 0,0 l/m 2 min 0 min 252 W/m 12,9 km/h (3 Bft) 100,00 %
09.06.2022 19:14 19,3 C 20,0 C 15,0 C 78 % 1018,6 hPa 0,0 l/m 2 min 0 min 360 W/m 6,4 km/h (2 Bft) 97,87 %
09.06.2022 19:16 19,4 C 20,0 C 15,6 C 78 % 1018,6 hPa 0,0 l/m 2 min 0 min 298 W/m 6,4 km/h (2 Bft) 100,00 %
09.06.2022 19:18 19,4 C 20,0 C 15,0 C 77 % 1018,6 hPa 0,0 l/m 2 min 0 min 300 W/m 6,4 km/h (2 Bft) 100,00 %
09.06.2022 19:20 19,4 C 20,0 C 15,0 C 76 % 1018,6 hPa 0,0 l/m 2 min 0 min 278 W/m 6,4 km/h (2 Bft) 100,00 %
09.06.2022 19:22 19,5 C 19,4 C 15,0 C 76 % 1018,6 hPa 0,0 l/m 2 min 0 min 173 W/m 6,4 km/h (2 Bft) 100,00 %
09.06.2022 19:24 19,5 C 19,4 C 15,0 C 76 % 1018,6 hPa 0,0 l/m 0 min 0 min 117 W/m 6,4 km/h (2 Bft) 100,00 %
09.06.2022 19:26 19,4 C 18,9 C 15,0 C 76 % 1018,7 hPa 0,0 l/m 0 min 0 min 98 W/m 12,9 km/h (3 Bft) 100,00 %
09.06.2022 19:28 19,4 C 18,9 C 15,0 C 76 % 1018,7 hPa 0,0 l/m 0 min 0 min 85 W/m 3,2 km/h (1 Bft) 97,87 %
09.06.2022 19:30 19,3 C 18,9 C 15,0 C 76 % 1018,7 hPa 0,0 l/m 0 min 0 min 83 W/m 6,4 km/h (2 Bft) 100,00 %
09.06.2022 19:32 19,3 C 18,9 C 14,4 C 76 % 1018,8 hPa 0,0 l/m 0 min 0 min 88 W/m 3,2 km/h (1 Bft) 97,87 %
09.06.2022 19:34 19,3 C 18,3 C 14,4 C 76 % 1018,8 hPa 0,0 l/m 0 min 0 min 98 W/m 3,2 km/h (1 Bft) 97,87 %
09.06.2022 19:36 19,3 C 18,3 C 14,4 C 76 % 1018,8 hPa 0,0 l/m 0 min 0 min 109 W/m 3,2 km/h (1 Bft) 98,28 %
09.06.2022 19:38 19,3 C 18,3 C 14,4 C 77 % 1018,8 hPa 0,0 l/m 0 min 0 min 134 W/m 3,2 km/h (1 Bft) 97,87 %
09.06.2022 19:40 19,3 C 18,9 C 14,4 C 77 % 1018,9 hPa 0,0 l/m 2 min 0 min 170 W/m 0,0 km/h (0 Bft) 97,14 %
09.06.2022 19:42 19,2 C 18,9 C 14,4 C 77 % 1018,9 hPa 0,0 l/m 2 min 0 min 272 W/m 0,0 km/h (0 Bft) 97,87 %
09.06.2022 19:44 19,3 C 18,9 C 15,0 C 77 % 1018,9 hPa 0,0 l/m 2 min 0 min 281 W/m 12,9 km/h (3 Bft) 95,74 %
09.06.2022 19:46 19,3 C 19,4 C 15,0 C 77 % 1018,9 hPa 0,0 l/m 2 min 0 min 287 W/m 12,9 km/h (3 Bft) 97,87 %
09.06.2022 19:48 19,3 C 19,4 C 15,0 C 78 % 1019,0 hPa 0,0 l/m 2 min 0 min 275 W/m 3,2 km/h (1 Bft) 95,65 %
09.06.2022 19:50 19,4 C 19,4 C 15,0 C 78 % 1018,9 hPa 0,0 l/m 2 min 0 min 248 W/m 3,2 km/h (1 Bft) 95,74 %
09.06.2022 19:52 19,4 C 19,4 C 15,0 C 77 % 1019,0 hPa 0,0 l/m 2 min 0 min 205 W/m 3,2 km/h (1 Bft) 97,87 %
09.06.2022 19:54 19,4 C 19,4 C 15,0 C 77 % 1019,0 hPa 0,0 l/m 0 min 0 min 108 W/m 9,7 km/h (2 Bft) 95,74 %
09.06.2022 19:56 19,4 C 18,9 C 15,0 C 77 % 1019,0 hPa 0,0 l/m 0 min 0 min 82 W/m 9,7 km/h (2 Bft) 97,87 %
09.06.2022 19:58 19,4 C 18,9 C 15,0 C 77 % 1019,0 hPa 0,0 l/m 0 min 0 min 67 W/m 6,4 km/h (2 Bft) 97,87 %
09.06.2022 20:00 19,4 C 18,9 C 15,0 C 77 % 1019,0 hPa 0,0 l/m 0 min 0 min 62 W/m 6,4 km/h (2 Bft) 95,65 %
09.06.2022 20:02 19,4 C 18,3 C 14,4 C 77 % 1019,0 hPa 0,0 l/m 0 min 0 min 70 W/m 3,2 km/h (1 Bft) 95,74 %
09.06.2022 20:04 19,4 C 18,3 C 14,4 C 77 % 1019,1 hPa 0,0 l/m 0 min 0 min 83 W/m 0,0 km/h (0 Bft) 95,74 %
09.06.2022 20:06 19,3 C 18,3 C 14,4 C 77 % 1019,0 hPa 0,0 l/m 0 min 0 min 92 W/m 0,0 km/h (0 Bft) 94,92 %
09.06.2022 20:08 19,3 C 18,3 C 14,4 C 77 % 1019,1 hPa 0,0 l/m 0 min 0 min 93 W/m 0,0 km/h (0 Bft) 94,29 %
09.06.2022 20:10 19,3 C 18,3 C 14,4 C 77 % 1019,1 hPa 0,0 l/m 0 min 0 min 92 W/m 0,0 km/h (0 Bft) 95,74 %
09.06.2022 20:12 19,3 C 18,3 C 14,4 C 77 % 1019,0 hPa 0,0 l/m 0 min 0 min 93 W/m 0,0 km/h (0 Bft) 95,65 %
09.06.2022 20:14 19,2 C 18,3 C 14,4 C 78 % 1019,1 hPa 0,0 l/m 0 min 0 min 83 W/m 0,0 km/h (0 Bft) 97,87 %
09.06.2022 20:16 19,2 C 18,3 C 14,4 C 78 % 1019,1 hPa 0,0 l/m 0 min 0 min 71 W/m 0,0 km/h (0 Bft) 95,74 %
09.06.2022 20:18 19,2 C 18,3 C 14,4 C 77 % 1019,1 hPa 0,0 l/m 0 min 0 min 64 W/m 0,0 km/h (0 Bft) 95,74 %
09.06.2022 20:20 19,1 C 18,3 C 14,4 C 77 % 1019,1 hPa 0,0 l/m 0 min 0 min 63 W/m 0,0 km/h (0 Bft) 97,87 %
09.06.2022 20:22 19,1 C 18,3 C 14,4 C 77 % 1019,1 hPa 0,0 l/m 0 min 0 min 61 W/m 0,0 km/h (0 Bft) 97,87 %
09.06.2022 20:24 19,0 C 18,3 C 14,4 C 77 % 1019,1 hPa 0,0 l/m 0 min 0 min 56 W/m 0,0 km/h (0 Bft) 97,83 %
09.06.2022 20:26 18,9 C 17,8 C 14,4 C 78 % 1019,1 hPa 0,0 l/m 0 min 0 min 51 W/m 0,0 km/h (0 Bft) 97,87 %
09.06.2022 20:28 18,9 C 17,8 C 14,4 C 78 % 1019,1 hPa 0,0 l/m 0 min 0 min 50 W/m 0,0 km/h (0 Bft) 97,87 %
09.06.2022 20:30 18,9 C 17,8 C 13,9 C 78 % 1019,1 hPa 0,0 l/m 0 min 0 min 47 W/m 0,0 km/h (0 Bft) 95,74 %
09.06.2022 20:32 18,8 C 17,8 C 13,9 C 78 % 1019,1 hPa 0,0 l/m 0 min 0 min 46 W/m 0,0 km/h (0 Bft) 97,87 %
09.06.2022 20:34 18,8 C 17,8 C 13,9 C 79 % 1019,2 hPa 0,0 l/m 0 min 0 min 46 W/m 0,0 km/h (0 Bft) 97,87 %
09.06.2022 20:36 18,7 C 17,8 C 13,9 C 78 % 1019,2 hPa 0,0 l/m 0 min 0 min 46 W/m 0,0 km/h (0 Bft) 98,28 %
09.06.2022 20:38 18,7 C 17,8 C 13,9 C 78 % 1019,2 hPa 0,0 l/m 0 min 0 min 44 W/m 0,0 km/h (0 Bft) 97,14 %
09.06.2022 20:40 18,6 C 17,8 C 13,9 C 78 % 1019,2 hPa 0,0 l/m 0 min 0 min 43 W/m 0,0 km/h (0 Bft) 95,74 %
09.06.2022 20:42 18,6 C 17,8 C 13,9 C 78 % 1019,2 hPa 0,0 l/m 0 min 0 min 42 W/m 0,0 km/h (0 Bft) 93,62 %
09.06.2022 20:44 18,5 C 17,8 C 13,9 C 78 % 1019,2 hPa 0,0 l/m 0 min 0 min 44 W/m 0,0 km/h (0 Bft) 95,74 %
09.06.2022 20:46 18,5 C 17,8 C 13,9 C 78 % 1019,3 hPa 0,0 l/m 0 min 0 min 47 W/m 0,0 km/h (0 Bft) 91,49 %
09.06.2022 20:48 18,4 C 17,2 C 13,9 C 78 % 1019,3 hPa 0,0 l/m 0 min 0 min 49 W/m 0,0 km/h (0 Bft) 97,83 %
09.06.2022 20:50 18,4 C 17,2 C 13,9 C 78 % 1019,2 hPa 0,0 l/m 0 min 0 min 46 W/m 0,0 km/h (0 Bft) 97,87 %
09.06.2022 20:52 18,4 C 17,2 C 13,9 C 78 % 1019,3 hPa 0,0 l/m 0 min 0 min 40 W/m 0,0 km/h (0 Bft) 97,87 %
09.06.2022 20:54 18,4 C 17,2 C 13,3 C 79 % 1019,3 hPa 0,0 l/m 0 min 0 min 34 W/m 0,0 km/h (0 Bft) 97,87 %
09.06.2022 20:56 18,4 C 17,2 C 13,3 C 79 % 1019,3 hPa 0,0 l/m 0 min 0 min 32 W/m 0,0 km/h (0 Bft) 100,00 %
09.06.2022 20:58 18,3 C 17,2 C 13,3 C 79 % 1019,3 hPa 0,0 l/m 0 min 0 min 28 W/m 0,0 km/h (0 Bft) 97,87 %
09.06.2022 21:00 18,3 C 17,2 C 13,3 C 79 % 1019,4 hPa 0,0 l/m 0 min 0 min 26 W/m 0,0 km/h (0 Bft) 97,83 %
09.06.2022 21:02 18,3 C 16,7 C 13,3 C 80 % 1019,4 hPa 0,0 l/m 0 min 0 min 25 W/m 0,0 km/h (0 Bft) 97,87 %
09.06.2022 21:04 18,2 C 16,7 C 12,8 C 80 % 1019,4 hPa 0,0 l/m 0 min 0 min 25 W/m 0,0 km/h (0 Bft) 97,87 %
09.06.2022 21:06 18,2 C 16,7 C 12,8 C 80 % 1019,3 hPa 0,0 l/m 0 min 0 min 25 W/m 0,0 km/h (0 Bft) 95,74 %
09.06.2022 21:08 18,2 C 16,7 C 12,8 C 81 % 1019,4 hPa 0,0 l/m 0 min 0 min 24 W/m 0,0 km/h (0 Bft) 97,87 %
09.06.2022 21:10 18,1 C 16,7 C 12,8 C 81 % 1019,4 hPa 0,0 l/m 0 min 0 min 23 W/m 0,0 km/h (0 Bft) 97,87 %
09.06.2022 21:12 18,1 C 16,7 C 12,8 C 81 % 1019,4 hPa 0,0 l/m 0 min 0 min 21 W/m 0,0 km/h (0 Bft) 97,83 %
09.06.2022 21:14 18,0 C 16,7 C 12,8 C 81 % 1019,4 hPa 0,0 l/m 0 min 0 min 20 W/m 0,0 km/h (0 Bft) 100,00 %
09.06.2022 21:16 17,9 C 16,1 C 12,8 C 81 % 1019,5 hPa 0,0 l/m 0 min 0 min 19 W/m 0,0 km/h (0 Bft) 100,00 %
09.06.2022 21:18 17,9 C 16,1 C 12,8 C 81 % 1019,5 hPa 0,0 l/m 0 min 0 min 18 W/m 0,0 km/h (0 Bft) 100,00 %
09.06.2022 21:20 17,8 C 16,1 C 12,8 C 81 % 1019,5 hPa 0,0 l/m 0 min 0 min 17 W/m 0,0 km/h (0 Bft) 100,00 %
09.06.2022 21:22 17,8 C 16,1 C 12,8 C 81 % 1019,5 hPa 0,0 l/m 0 min 0 min 16 W/m 0,0 km/h (0 Bft) 100,00 %
09.06.2022 21:24 17,8 C 16,1 C 12,2 C 81 % 1019,6 hPa 0,0 l/m 0 min 0 min 16 W/m 0,0 km/h (0 Bft) 100,00 %
09.06.2022 21:26 17,7 C 16,1 C 12,2 C 82 % 1019,6 hPa 0,0 l/m 0 min 0 min 14 W/m 0,0 km/h (0 Bft) 98,04 %
09.06.2022 21:28 17,7 C 16,1 C 12,2 C 82 % 1019,7 hPa 0,0 l/m 0 min 0 min 14 W/m 0,0 km/h (0 Bft) 97,83 %
09.06.2022 21:30 17,6 C 16,1 C 12,2 C 82 % 1019,7 hPa 0,0 l/m 0 min 0 min 13 W/m 0,0 km/h (0 Bft) 100,00 %
09.06.2022 21:32 17,6 C 16,1 C 12,2 C 82 % 1019,7 hPa 0,0 l/m 0 min 0 min 12 W/m 0,0 km/h (0 Bft) 100,00 %
09.06.2022 21:34 17,6 C 16,1 C 12,2 C 82 % 1019,8 hPa 0,0 l/m 0 min 0 min 11 W/m 0,0 km/h (0 Bft) 100,00 %
09.06.2022 21:36 17,5 C 16,1 C 12,2 C 82 % 1019,8 hPa 0,0 l/m 0 min 0 min 11 W/m 0,0 km/h (0 Bft) 100,00 %
09.06.2022 21:38 17,4 C 16,1 C 12,2 C 83 % 1019,8 hPa 0,0 l/m 0 min 0 min 9 W/m 0,0 km/h (0 Bft) 100,00 %
09.06.2022 21:40 17,4 C 16,1 C 12,2 C 83 % 1019,8 hPa 0,0 l/m 0 min 0 min 8 W/m 0,0 km/h (0 Bft) 100,00 %
09.06.2022 21:42 17,3 C 16,1 C 12,2 C 83 % 1019,9 hPa 0,0 l/m 0 min 0 min 7 W/m 0,0 km/h (0 Bft) 100,00 %
09.06.2022 21:44 17,3 C 16,1 C 12,2 C 83 % 1019,9 hPa 0,0 l/m 0 min 0 min 7 W/m 0,0 km/h (0 Bft) 97,87 %
09.06.2022 21:46 17,3 C 15,6 C 12,2 C 83 % 1019,9 hPa 0,0 l/m 0 min 0 min 5 W/m 0,0 km/h (0 Bft) 100,00 %
09.06.2022 21:48 17,2 C 15,6 C 12,2 C 83 % 1020,0 hPa 0,0 l/m 0 min 0 min 5 W/m 0,0 km/h (0 Bft) 100,00 %
09.06.2022 21:50 17,2 C 15,6 C 12,2 C 83 % 1020,0 hPa 0,0 l/m 0 min 0 min 3 W/m 0,0 km/h (0 Bft) 97,87 %
09.06.2022 21:52 17,2 C 15,6 C 12,2 C 83 % 1020,0 hPa 0,0 l/m 0 min 0 min 0 W/m 0,0 km/h (0 Bft) 100,00 %
09.06.2022 21:54 17,1 C 15,6 C 11,7 C 83 % 1020,0 hPa 0,0 l/m 0 min 0 min 0 W/m 0,0 km/h (0 Bft) 100,00 %
09.06.2022 21:56 17,1 C 15,6 C 11,7 C 83 % 1020,0 hPa 0,0 l/m 0 min 0 min 0 W/m 0,0 km/h (0 Bft) 100,00 %
09.06.2022 21:58 17,1 C 15,6 C 11,7 C 83 % 1020,0 hPa 0,0 l/m 0 min 0 min 0 W/m 0,0 km/h (0 Bft) 100,00 %
09.06.2022 22:00 17,0 C 15,6 C 11,7 C 83 % 1020,1 hPa 0,0 l/m 0 min 0 min 0 W/m 0,0 km/h (0 Bft) 100,00 %
09.06.2022 22:02 17,0 C 15,6 C 11,7 C 83 % 1020,1 hPa 0,0 l/m 0 min 0 min 0 W/m 0,0 km/h (0 Bft) 100,00 %
09.06.2022 22:04 17,0 C 15,0 C 11,7 C 83 % 1020,1 hPa 0,0 l/m 0 min 0 min 0 W/m 0,0 km/h (0 Bft) 100,00 %
09.06.2022 22:06 16,9 C 15,0 C 11,7 C 84 % 1020,1 hPa 0,0 l/m 0 min 0 min 0 W/m 0,0 km/h (0 Bft) 100,00 %
09.06.2022 22:08 16,9 C 15,0 C 11,7 C 84 % 1020,2 hPa 0,0 l/m 0 min 0 min 0 W/m 0,0 km/h (0 Bft) 100,00 %
09.06.2022 22:10 16,9 C 15,0 C 11,1 C 84 % 1020,2 hPa 0,0 l/m 0 min 0 min 0 W/m 0,0 km/h (0 Bft) 100,00 %
09.06.2022 22:12 16,8 C 14,4 C 11,1 C 84 % 1020,2 hPa 0,0 l/m 0 min 0 min 0 W/m 0,0 km/h (0 Bft) 97,83 %
09.06.2022 22:14 16,8 C 14,4 C 11,1 C 85 % 1020,3 hPa 0,0 l/m 0 min 0 min 0 W/m 0,0 km/h (0 Bft) 97,87 %
09.06.2022 22:16 16,8 C 14,4 C 11,1 C 85 % 1020,2 hPa 0,0 l/m 0 min 0 min 0 W/m 0,0 km/h (0 Bft) 95,74 %
09.06.2022 22:18 16,7 C 14,4 C 11,1 C 85 % 1020,3 hPa 0,0 l/m 0 min 0 min 0 W/m 0,0 km/h (0 Bft) 97,87 %
09.06.2022 22:20 16,6 C 14,4 C 11,1 C 85 % 1020,3 hPa 0,0 l/m 0 min 0 min 0 W/m 0,0 km/h (0 Bft) 97,87 %
09.06.2022 22:22 16,6 C 14,4 C 11,1 C 86 % 1020,3 hPa 0,0 l/m 0 min 0 min 0 W/m 0,0 km/h (0 Bft) 91,49 %
09.06.2022 22:24 16,5 C 14,4 C 11,1 C 86 % 1020,4 hPa 0,0 l/m 0 min 0 min 0 W/m 0,0 km/h (0 Bft) 97,83 %
09.06.2022 22:26 16,4 C 14,4 C 11,1 C 86 % 1020,4 hPa 0,0 l/m 0 min 0 min 0 W/m 0,0 km/h (0 Bft) 97,87 %
09.06.2022 22:28 16,3 C 13,9 C 11,1 C 86 % 1020,5 hPa 0,0 l/m 0 min 0 min 0 W/m 0,0 km/h (0 Bft) 97,87 %
09.06.2022 22:30 16,3 C 13,9 C 11,1 C 87 % 1020,5 hPa 0,0 l/m 0 min 0 min 0 W/m 0,0 km/h (0 Bft) 95,74 %
09.06.2022 22:32 16,2 C 13,9 C 11,1 C 87 % 1020,5 hPa 0,0 l/m 0 min 0 min 0 W/m 0,0 km/h (0 Bft) 95,74 %
09.06.2022 22:34 16,2 C 13,9 C 10,6 C 87 % 1020,5 hPa 0,0 l/m 0 min 0 min 0 W/m 0,0 km/h (0 Bft) 95,74 %
09.06.2022 22:36 16,1 C 13,9 C 11,1 C 87 % 1020,6 hPa 0,0 l/m 0 min 0 min 0 W/m 0,0 km/h (0 Bft) 95,65 %
09.06.2022 22:38 16,1 C 13,9 C 11,1 C 88 % 1020,5 hPa 0,0 l/m 0 min 0 min 0 W/m 0,0 km/h (0 Bft) 93,62 %
09.06.2022 22:40 15,9 C 13,9 C 11,1 C 87 % 1020,6 hPa 0,0 l/m 0 min 0 min 0 W/m 0,0 km/h (0 Bft) 89,36 %
09.06.2022 22:42 15,9 C 13,9 C 11,1 C 88 % 1020,6 hPa 0,0 l/m 0 min 0 min 0 W/m 0,0 km/h (0 Bft) 93,62 %
09.06.2022 22:44 15,8 C 13,9 C 11,1 C 88 % 1020,6 hPa 0,0 l/m 0 min 0 min 0 W/m 0,0 km/h (0 Bft) 93,62 %
09.06.2022 22:46 15,8 C 13,9 C 11,1 C 88 % 1020,6 hPa 0,0 l/m 0 min 0 min 0 W/m 0,0 km/h (0 Bft) 93,48 %
09.06.2022 22:48 15,7 C 13,9 C 11,1 C 88 % 1020,6 hPa 0,0 l/m 0 min 0 min 0 W/m 0,0 km/h (0 Bft) 93,62 %
09.06.2022 22:50 15,7 C 13,9 C 11,1 C 88 % 1020,5 hPa 0,0 l/m 0 min 0 min 0 W/m 0,0 km/h (0 Bft) 93,62 %
09.06.2022 22:52 15,7 C 13,9 C 10,6 C 89 % 1020,5 hPa 0,0 l/m 0 min 0 min 0 W/m 0,0 km/h (0 Bft) 93,62 %
09.06.2022 22:54 15,6 C 13,9 C 10,6 C 89 % 1020,4 hPa 0,0 l/m 0 min 0 min 0 W/m 0,0 km/h (0 Bft) 91,49 %
09.06.2022 22:56 15,6 C 13,9 C 10,6 C 89 % 1020,5 hPa 0,0 l/m 0 min 0 min 0 W/m 0,0 km/h (0 Bft) 93,62 %
09.06.2022 22:58 15,6 C 13,9 C 10,6 C 89 % 1020,5 hPa 0,0 l/m 0 min 0 min 0 W/m 0,0 km/h (0 Bft) 91,30 %
09.06.2022 23:00 15,5 C 13,9 C 10,6 C 89 % 1020,5 hPa 0,0 l/m 0 min 0 min 0 W/m 0,0 km/h (0 Bft) 91,49 %
09.06.2022 23:02 15,4 C 13,3 C 10,6 C 89 % 1020,5 hPa 0,0 l/m 0 min 0 min 0 W/m 0,0 km/h (0 Bft) 93,88 %
09.06.2022 23:04 15,4 C 13,3 C 10,6 C 89 % 1020,5 hPa 0,0 l/m 0 min 0 min 0 W/m 0,0 km/h (0 Bft) 95,74 %
09.06.2022 23:06 15,3 C 13,3 C 10,6 C 89 % 1020,6 hPa 0,0 l/m 0 min 0 min 0 W/m 0,0 km/h (0 Bft) 93,62 %
09.06.2022 23:08 15,3 C 13,3 C 10,6 C 89 % 1020,6 hPa 0,0 l/m 0 min 0 min 0 W/m 0,0 km/h (0 Bft) 95,74 %
09.06.2022 23:10 15,2 C 13,3 C 10,6 C 90 % 1020,7 hPa 0,0 l/m 0 min 0 min 0 W/m 0,0 km/h (0 Bft) 100,00 %
09.06.2022 23:12 15,2 C 13,3 C 10,6 C 90 % 1020,6 hPa 0,0 l/m 0 min 0 min 0 W/m 0,0 km/h (0 Bft) 97,87 %
09.06.2022 23:14 15,1 C 13,3 C 10,6 C 90 % 1020,7 hPa 0,0 l/m 0 min 0 min 0 W/m 0,0 km/h (0 Bft) 97,87 %
09.06.2022 23:16 15,1 C 13,3 C 10,6 C 90 % 1020,6 hPa 0,0 l/m 0 min 0 min 0 W/m 0,0 km/h (0 Bft) 100,00 %
09.06.2022 23:18 15,0 C 13,3 C 10,0 C 90 % 1020,6 hPa 0,0 l/m 0 min 0 min 0 W/m 0,0 km/h (0 Bft) 100,00 %
09.06.2022 23:20 14,9 C 13,3 C 10,0 C 90 % 1020,6 hPa 0,0 l/m 0 min 0 min 0 W/m 0,0 km/h (0 Bft) 100,00 %
09.06.2022 23:22 14,9 C 12,8 C 10,0 C 90 % 1020,6 hPa 0,0 l/m 0 min 0 min 0 W/m 0,0 km/h (0 Bft) 100,00 %
09.06.2022 23:24 14,8 C 12,8 C 10,0 C 90 % 1020,7 hPa 0,0 l/m 0 min 0 min 0 W/m 0,0 km/h (0 Bft) 97,87 %
09.06.2022 23:26 14,8 C 12,8 C 10,0 C 91 % 1020,7 hPa 0,0 l/m 0 min 0 min 0 W/m 0,0 km/h (0 Bft) 100,00 %
09.06.2022 23:28 14,7 C 12,8 C 10,0 C 90 % 1020,7 hPa 0,0 l/m 0 min 0 min 0 W/m 0,0 km/h (0 Bft) 100,00 %
09.06.2022 23:30 14,7 C 12,8 C 10,0 C 91 % 1020,7 hPa 0,0 l/m 0 min 0 min 0 W/m 0,0 km/h (0 Bft) 100,00 %
09.06.2022 23:32 14,6 C 12,8 C 10,0 C 91 % 1020,7 hPa 0,0 l/m 0 min 0 min 0 W/m 0,0 km/h (0 Bft) 100,00 %
09.06.2022 23:34 14,6 C 12,8 C 10,0 C 91 % 1020,7 hPa 0,0 l/m 0 min 0 min 0 W/m 0,0 km/h (0 Bft) 100,00 %
09.06.2022 23:36 14,6 C 12,8 C 10,0 C 91 % 1020,7 hPa 0,0 l/m 0 min 0 min 0 W/m 0,0 km/h (0 Bft) 97,87 %
09.06.2022 23:38 14,5 C 12,8 C 10,0 C 91 % 1020,7 hPa 0,0 l/m 0 min 0 min 0 W/m 0,0 km/h (0 Bft) 100,00 %
09.06.2022 23:40 14,4 C 12,8 C 10,0 C 91 % 1020,7 hPa 0,0 l/m 0 min 0 min 0 W/m 0,0 km/h (0 Bft) 100,00 %
09.06.2022 23:42 14,3 C 12,8 C 10,0 C 91 % 1020,8 hPa 0,0 l/m 0 min 0 min 0 W/m 0,0 km/h (0 Bft) 100,00 %
09.06.2022 23:44 14,3 C 12,8 C 10,0 C 91 % 1020,8 hPa 0,0 l/m 0 min 0 min 0 W/m 0,0 km/h (0 Bft) 97,87 %
09.06.2022 23:46 14,3 C 12,8 C 10,0 C 91 % 1020,8 hPa 0,0 l/m 0 min 0 min 0 W/m 0,0 km/h (0 Bft) 100,00 %
09.06.2022 23:48 14,3 C 12,8 C 10,0 C 92 % 1020,8 hPa 0,0 l/m 0 min 0 min 0 W/m 0,0 km/h (0 Bft) 100,00 %
09.06.2022 23:50 14,3 C 12,8 C 10,0 C 92 % 1020,9 hPa 0,0 l/m 0 min 0 min 0 W/m 0,0 km/h (0 Bft) 100,00 %
09.06.2022 23:52 14,3 C 12,8 C 10,0 C 92 % 1020,9 hPa 0,0 l/m 0 min 0 min 0 W/m 0,0 km/h (0 Bft) 97,87 %
09.06.2022 23:54 14,3 C 12,8 C 10,0 C 92 % 1020,9 hPa 0,0 l/m 0 min 0 min 0 W/m 0,0 km/h (0 Bft) 100,00 %
09.06.2022 23:56 14,3 C 12,8 C 9,4 C 92 % 1020,9 hPa 0,0 l/m 0 min 0 min 0 W/m 0,0 km/h (0 Bft) 100,00 %
09.06.2022 23:58 14,2 C 12,8 C 9,4 C 92 % 1020,9 hPa 0,0 l/m 0 min 0 min 0 W/m 0,0 km/h (0 Bft) 100,00 %
_ Min-Zeit 03:20 02:06 02:08 17:12 00:04 - - - - 12:08 08:14
Minimum _ 12,8 C 12,2 C 9,4 C 67 % 1008,4 hPa - - - - 0,0 km/h (0 Bft) 45,95 %
_ Max-Zeit 17:28 16:18 13:40 00:00 23:50 11:46 08:18 12:07 13:58 14:26 00:26
Maximum _ 20,4 C 23,9 C 18,3 C 98 % 1020,9 hPa 1,2 l/m 2 min 3 min 1199 W/m 35,4 km/h
S-SW (5 Bft)
100,00 %
Durchschnitt _ 16,0 C 15,7 C 12,3 C 88 % 1014,5 hPa #6,8 l/m #3:56 h #57 min. 246 W/m 7,9 km/h (2 Bft) 97,58 %
© 2022 W. Hausmann